﻿<?xml version="1.0" encoding="utf-8"?><gpx creator="Garmin Desktop App" version="1.1" xsi:schemaLocation="http://www.topografix.com/GPX/1/1 http://www.topografix.com/GPX/1/1/gpx.xsd http://www.garmin.com/xmlschemas/WaypointExtension/v1 http://www8.garmin.com/xmlschemas/WaypointExtensionv1.xsd http://www.garmin.com/xmlschemas/TrackPointExtension/v1 http://www.garmin.com/xmlschemas/TrackPointExtensionv1.xsd http://www.garmin.com/xmlschemas/GpxExtensions/v3 http://www8.garmin.com/xmlschemas/GpxExtensionsv3.xsd http://www.garmin.com/xmlschemas/ActivityExtension/v1 http://www8.garmin.com/xmlschemas/ActivityExtensionv1.xsd http://www.garmin.com/xmlschemas/AdventuresExtensions/v1 http://www8.garmin.com/xmlschemas/AdventuresExtensionv1.xsd http://www.garmin.com/xmlschemas/PressureExtension/v1 http://www.garmin.com/xmlschemas/PressureExtensionv1.xsd http://www.garmin.com/xmlschemas/TripExtensions/v1 http://www.garmin.com/xmlschemas/TripExtensionsv1.xsd http://www.garmin.com/xmlschemas/TripMetaDataExtensions/v1 http://www.garmin.com/xmlschemas/TripMetaDataExtensionsv1.xsd http://www.garmin.com/xmlschemas/ViaPointTransportationModeExtensions/v1 http://www.garmin.com/xmlschemas/ViaPointTransportationModeExtensionsv1.xsd http://www.garmin.com/xmlschemas/CreationTimeExtension/v1 http://www.garmin.com/xmlschemas/CreationTimeExtensionsv1.xsd http://www.garmin.com/xmlschemas/AccelerationExtension/v1 http://www.garmin.com/xmlschemas/AccelerationExtensionv1.xsd http://www.garmin.com/xmlschemas/PowerExtension/v1 http://www.garmin.com/xmlschemas/PowerExtensionv1.xsd http://www.garmin.com/xmlschemas/VideoExtension/v1 http://www.garmin.com/xmlschemas/VideoExtensionv1.xsd" xmlns="http://www.topografix.com/GPX/1/1" xmlns:xsi="http://www.w3.org/2001/XMLSchema-instance" xmlns:wptx1="http://www.garmin.com/xmlschemas/WaypointExtension/v1" xmlns:gpxtrx="http://www.garmin.com/xmlschemas/GpxExtensions/v3" xmlns:gpxtpx="http://www.garmin.com/xmlschemas/TrackPointExtension/v1" xmlns:gpxx="http://www.garmin.com/xmlschemas/GpxExtensions/v3" xmlns:trp="http://www.garmin.com/xmlschemas/TripExtensions/v1" xmlns:adv="http://www.garmin.com/xmlschemas/AdventuresExtensions/v1" xmlns:prs="http://www.garmin.com/xmlschemas/PressureExtension/v1" xmlns:tmd="http://www.garmin.com/xmlschemas/TripMetaDataExtensions/v1" xmlns:vptm="http://www.garmin.com/xmlschemas/ViaPointTransportationModeExtensions/v1" xmlns:ctx="http://www.garmin.com/xmlschemas/CreationTimeExtension/v1" xmlns:gpxacc="http://www.garmin.com/xmlschemas/AccelerationExtension/v1" xmlns:gpxpx="http://www.garmin.com/xmlschemas/PowerExtension/v1" xmlns:vidx1="http://www.garmin.com/xmlschemas/VideoExtension/v1">

  <metadata>
    <link href="http://www.garmin.com">
      <text>Garmin International</text>
    </link>
    <time>2021-08-22T18:36:38Z</time>
    <bounds maxlat="51.665690392255783" maxlon="5.14237848110497" minlat="51.638012928888202" minlon="5.065164221450687" />
  </metadata>

  <trk>
    <name>duinwal ijsbaan roestelberg 19 km</name>
    <extensions>
      <gpxx:TrackExtension>
        <gpxx:DisplayColor>Red</gpxx:DisplayColor>
      </gpxx:TrackExtension>
    </extensions>
    <trkseg>
      <trkpt lat="51.638034889474511" lon="5.142132639884949">
        <ele>37.859999999999999</ele>
        <time>2019-09-07T08:54:24Z</time>
      </trkpt>
      <trkpt lat="51.638012928888202" lon="5.142142698168755">
        <ele>38.579999999999998</ele>
        <time>2019-09-07T08:54:46Z</time>
      </trkpt>
      <trkpt lat="51.638092556968331" lon="5.142264319583774">
        <ele>36.649999999999999</ele>
        <time>2019-09-07T08:57:41Z</time>
      </trkpt>
      <trkpt lat="51.63808761164546" lon="5.142292398959398">
        <ele>36.130000000000003</ele>
        <time>2019-09-07T08:58:21Z</time>
      </trkpt>
      <trkpt lat="51.638166485354304" lon="5.142310839146376">
        <ele>35.210000000000001</ele>
        <time>2019-09-07T08:59:30Z</time>
      </trkpt>
      <trkpt lat="51.638304451480508" lon="5.14237848110497">
        <ele>34.840000000000003</ele>
        <time>2019-09-07T08:59:58Z</time>
      </trkpt>
      <trkpt lat="51.638449039310217" lon="5.142362890765071">
        <ele>34.549999999999997</ele>
        <time>2019-09-07T09:00:16Z</time>
      </trkpt>
      <trkpt lat="51.638459684327245" lon="5.142363645136356">
        <ele>33.990000000000002</ele>
        <time>2019-09-07T09:00:52Z</time>
      </trkpt>
      <trkpt lat="51.638448117300868" lon="5.14233841560781">
        <ele>33.450000000000003</ele>
        <time>2019-09-07T09:01:25Z</time>
      </trkpt>
      <trkpt lat="51.638485752046108" lon="5.142220398411155">
        <ele>32.960000000000001</ele>
        <time>2019-09-07T09:01:53Z</time>
      </trkpt>
      <trkpt lat="51.638497319072485" lon="5.141663337126374">
        <ele>32.469999999999999</ele>
        <time>2019-09-07T09:02:21Z</time>
      </trkpt>
      <trkpt lat="51.638545095920563" lon="5.141399893909693">
        <ele>32.280000000000001</ele>
        <time>2019-09-07T09:02:34Z</time>
      </trkpt>
      <trkpt lat="51.63860603235662" lon="5.141399726271629">
        <ele>32.18</ele>
        <time>2019-09-07T09:02:40Z</time>
      </trkpt>
      <trkpt lat="51.638825973495841" lon="5.141475163400173">
        <ele>31.91</ele>
        <time>2019-09-07T09:02:58Z</time>
      </trkpt>
      <trkpt lat="51.638958072289824" lon="5.141521012410522">
        <ele>31.600000000000001</ele>
        <time>2019-09-07T09:03:16Z</time>
      </trkpt>
      <trkpt lat="51.639117496088147" lon="5.141559820622206">
        <ele>31.359999999999999</ele>
        <time>2019-09-07T09:03:29Z</time>
      </trkpt>
      <trkpt lat="51.639333078637719" lon="5.14161916449666">
        <ele>31.039999999999999</ele>
        <time>2019-09-07T09:03:47Z</time>
      </trkpt>
      <trkpt lat="51.639519073069096" lon="5.141700720414519">
        <ele>30.760000000000002</ele>
        <time>2019-09-07T09:04:02Z</time>
      </trkpt>
      <trkpt lat="51.639708336442709" lon="5.141752688214183">
        <ele>30.449999999999999</ele>
        <time>2019-09-07T09:04:16Z</time>
      </trkpt>
      <trkpt lat="51.639939257875085" lon="5.141818569973111">
        <ele>30.829999999999998</ele>
        <time>2019-09-07T09:04:34Z</time>
      </trkpt>
      <trkpt lat="51.640129946172237" lon="5.141886547207832">
        <ele>30.52</ele>
        <time>2019-09-07T09:04:50Z</time>
      </trkpt>
      <trkpt lat="51.640366902574897" lon="5.141872214153409">
        <ele>30.190000000000001</ele>
        <time>2019-09-07T09:05:06Z</time>
      </trkpt>
      <trkpt lat="51.640423480421305" lon="5.141809433698654">
        <ele>30.079999999999998</ele>
        <time>2019-09-07T09:05:11Z</time>
      </trkpt>
      <trkpt lat="51.640431946143508" lon="5.141707258298993">
        <ele>29.989999999999998</ele>
        <time>2019-09-07T09:05:16Z</time>
      </trkpt>
      <trkpt lat="51.640451308339834" lon="5.141321942210197">
        <ele>29.620000000000001</ele>
        <time>2019-09-07T09:05:35Z</time>
      </trkpt>
      <trkpt lat="51.640478046610951" lon="5.140982056036592">
        <ele>29.34</ele>
        <time>2019-09-07T09:05:51Z</time>
      </trkpt>
      <trkpt lat="51.640442758798599" lon="5.14012148603797">
        <ele>28.530000000000001</ele>
        <time>2019-09-07T09:06:30Z</time>
      </trkpt>
      <trkpt lat="51.640431024134159" lon="5.139748575165868">
        <ele>28.18</ele>
        <time>2019-09-07T09:06:46Z</time>
      </trkpt>
      <trkpt lat="51.640392132103443" lon="5.139321517199278">
        <ele>27.760000000000002</ele>
        <time>2019-09-07T09:07:05Z</time>
      </trkpt>
      <trkpt lat="51.640385342761874" lon="5.139172235503793">
        <ele>27.559999999999999</ele>
        <time>2019-09-07T09:07:14Z</time>
      </trkpt>
      <trkpt lat="51.640370674431324" lon="5.13895170763135">
        <ele>27.34</ele>
        <time>2019-09-07T09:07:24Z</time>
      </trkpt>
      <trkpt lat="51.640342762693763" lon="5.138700334355235">
        <ele>26.989999999999998</ele>
        <time>2019-09-07T09:07:39Z</time>
      </trkpt>
      <trkpt lat="51.640343768522143" lon="5.138388611376286">
        <ele>26.57</ele>
        <time>2019-09-07T09:07:55Z</time>
      </trkpt>
      <trkpt lat="51.640322646126151" lon="5.137878237292171">
        <ele>26.09</ele>
        <time>2019-09-07T09:08:13Z</time>
      </trkpt>
      <trkpt lat="51.640251148492098" lon="5.13745947740972">
        <ele>25.559999999999999</ele>
        <time>2019-09-07T09:08:30Z</time>
      </trkpt>
      <trkpt lat="51.64018526673317" lon="5.137071227654815">
        <ele>25.140000000000001</ele>
        <time>2019-09-07T09:08:46Z</time>
      </trkpt>
      <trkpt lat="51.640095999464393" lon="5.136695634573698">
        <ele>24.73</ele>
        <time>2019-09-07T09:09:03Z</time>
      </trkpt>
      <trkpt lat="51.639998685568571" lon="5.136292967945337">
        <ele>24.300000000000001</ele>
        <time>2019-09-07T09:09:21Z</time>
      </trkpt>
      <trkpt lat="51.639961805194616" lon="5.136128012090921">
        <ele>24.140000000000001</ele>
        <time>2019-09-07T09:09:29Z</time>
      </trkpt>
      <trkpt lat="51.639894917607307" lon="5.135769853368402">
        <ele>23.780000000000001</ele>
        <time>2019-09-07T09:09:46Z</time>
      </trkpt>
      <trkpt lat="51.639801040291786" lon="5.135393925011158">
        <ele>23.510000000000002</ele>
        <time>2019-09-07T09:10:02Z</time>
      </trkpt>
      <trkpt lat="51.639727195724845" lon="5.135101564228535">
        <ele>23.260000000000002</ele>
        <time>2019-09-07T09:10:16Z</time>
      </trkpt>
      <trkpt lat="51.639627367258072" lon="5.134690180420876">
        <ele>23</ele>
        <time>2019-09-07T09:10:33Z</time>
      </trkpt>
      <trkpt lat="51.639494430273771" lon="5.13437326066196">
        <ele>22.780000000000001</ele>
        <time>2019-09-07T09:10:50Z</time>
      </trkpt>
      <trkpt lat="51.639427375048399" lon="5.13425406999886">
        <ele>22.620000000000001</ele>
        <time>2019-09-07T09:11:05Z</time>
      </trkpt>
      <trkpt lat="51.639459142461419" lon="5.134111326187849">
        <ele>23.420000000000002</ele>
        <time>2019-09-07T09:11:18Z</time>
      </trkpt>
      <trkpt lat="51.639509852975607" lon="5.134065309539437">
        <ele>23.359999999999999</ele>
        <time>2019-09-07T09:11:24Z</time>
      </trkpt>
      <trkpt lat="51.639634575694799" lon="5.133963134139776">
        <ele>23.98</ele>
        <time>2019-09-07T09:11:37Z</time>
      </trkpt>
      <trkpt lat="51.639996841549873" lon="5.133630037307739">
        <ele>24.210000000000001</ele>
        <time>2019-09-07T09:12:08Z</time>
      </trkpt>
      <trkpt lat="51.640056101605296" lon="5.133465249091387">
        <ele>24.050000000000001</ele>
        <time>2019-09-07T09:12:18Z</time>
      </trkpt>
      <trkpt lat="51.64021217264235" lon="5.133155789226294">
        <ele>23.84</ele>
        <time>2019-09-07T09:12:35Z</time>
      </trkpt>
      <trkpt lat="51.640282832086086" lon="5.132988905534148">
        <ele>23.649999999999999</ele>
        <time>2019-09-07T09:12:44Z</time>
      </trkpt>
      <trkpt lat="51.640562536194921" lon="5.132231935858727">
        <ele>22.960000000000001</ele>
        <time>2019-09-07T09:13:23Z</time>
      </trkpt>
      <trkpt lat="51.640701927244663" lon="5.131940664723516">
        <ele>22.699999999999999</ele>
        <time>2019-09-07T09:13:39Z</time>
      </trkpt>
      <trkpt lat="51.64086596108973" lon="5.131619721651077">
        <ele>24.09</ele>
        <time>2019-09-07T09:13:57Z</time>
      </trkpt>
      <trkpt lat="51.641050949692726" lon="5.131451245397329">
        <ele>24.66</ele>
        <time>2019-09-07T09:14:13Z</time>
      </trkpt>
      <trkpt lat="51.641308525577188" lon="5.131443701684475">
        <ele>24.370000000000001</ele>
        <time>2019-09-07T09:14:33Z</time>
      </trkpt>
      <trkpt lat="51.641362756490707" lon="5.131456442177296">
        <ele>21.969999999999999</ele>
        <time>2019-09-07T09:14:38Z</time>
      </trkpt>
      <trkpt lat="51.641502231359482" lon="5.131276147440076">
        <ele>19</ele>
        <time>2019-09-07T09:14:53Z</time>
      </trkpt>
      <trkpt lat="51.641507679596543" lon="5.131231136620045">
        <ele>18.960000000000001</ele>
        <time>2019-09-07T09:14:55Z</time>
      </trkpt>
      <trkpt lat="51.641403073444963" lon="5.130973644554615">
        <ele>18.879999999999999</ele>
        <time>2019-09-07T09:15:09Z</time>
      </trkpt>
      <trkpt lat="51.641357559710741" lon="5.130889741703868">
        <ele>21.199999999999999</ele>
        <time>2019-09-07T09:15:14Z</time>
      </trkpt>
      <trkpt lat="51.641266029328108" lon="5.130508029833436">
        <ele>21.780000000000001</ele>
        <time>2019-09-07T09:15:33Z</time>
      </trkpt>
      <trkpt lat="51.641204925253987" lon="5.130137968808413">
        <ele>21.620000000000001</ele>
        <time>2019-09-07T09:15:50Z</time>
      </trkpt>
      <trkpt lat="51.64117231965065" lon="5.129918111488223">
        <ele>19.109999999999999</ele>
        <time>2019-09-07T09:16:01Z</time>
      </trkpt>
      <trkpt lat="51.641180031001568" lon="5.129677215591073">
        <ele>19.010000000000002</ele>
        <time>2019-09-07T09:16:12Z</time>
      </trkpt>
      <trkpt lat="51.641214396804571" lon="5.12923875823617">
        <ele>18.800000000000001</ele>
        <time>2019-09-07T09:16:32Z</time>
      </trkpt>
      <trkpt lat="51.641277428716421" lon="5.128944972530007">
        <ele>18.670000000000002</ele>
        <time>2019-09-07T09:16:47Z</time>
      </trkpt>
      <trkpt lat="51.641406090930104" lon="5.128657892346382">
        <ele>18.5</ele>
        <time>2019-09-07T09:17:03Z</time>
      </trkpt>
      <trkpt lat="51.641523018479347" lon="5.128339380025864">
        <ele>18.280000000000001</ele>
        <time>2019-09-07T09:17:20Z</time>
      </trkpt>
      <trkpt lat="51.641598120331764" lon="5.127961607649922">
        <ele>18.079999999999998</ele>
        <time>2019-09-07T09:17:37Z</time>
      </trkpt>
      <trkpt lat="51.641668193042278" lon="5.12752122245729">
        <ele>17.93</ele>
        <time>2019-09-07T09:17:57Z</time>
      </trkpt>
      <trkpt lat="51.641747821122408" lon="5.127114281058312">
        <ele>17.73</ele>
        <time>2019-09-07T09:18:15Z</time>
      </trkpt>
      <trkpt lat="51.641811188310385" lon="5.126647325232625">
        <ele>17.52</ele>
        <time>2019-09-07T09:18:36Z</time>
      </trkpt>
      <trkpt lat="51.641878327354789" lon="5.126325460150838">
        <ele>17.370000000000001</ele>
        <time>2019-09-07T09:18:52Z</time>
      </trkpt>
      <trkpt lat="51.642041439190507" lon="5.126033686101437">
        <ele>17.199999999999999</ele>
        <time>2019-09-07T09:19:12Z</time>
      </trkpt>
      <trkpt lat="51.642242856323719" lon="5.125685334205627">
        <ele>16.98</ele>
        <time>2019-09-07T09:19:35Z</time>
      </trkpt>
      <trkpt lat="51.64243740029633" lon="5.125358439981937">
        <ele>16.780000000000001</ele>
        <time>2019-09-07T09:19:56Z</time>
      </trkpt>
      <trkpt lat="51.642549969255924" lon="5.125020397827029">
        <ele>16.620000000000001</ele>
        <time>2019-09-07T09:20:13Z</time>
      </trkpt>
      <trkpt lat="51.642663041129708" lon="5.124648325145245">
        <ele>16.43</ele>
        <time>2019-09-07T09:20:33Z</time>
      </trkpt>
      <trkpt lat="51.642752978950739" lon="5.124260829761624">
        <ele>16.289999999999999</ele>
        <time>2019-09-07T09:20:51Z</time>
      </trkpt>
      <trkpt lat="51.642698831856251" lon="5.123810302466154">
        <ele>15.31</ele>
        <time>2019-09-07T09:21:12Z</time>
      </trkpt>
      <trkpt lat="51.642606714740396" lon="5.123371174558997">
        <ele>15.130000000000001</ele>
        <time>2019-09-07T09:21:34Z</time>
      </trkpt>
      <trkpt lat="51.642593052238226" lon="5.122989043593407">
        <ele>14.94</ele>
        <time>2019-09-07T09:21:51Z</time>
      </trkpt>
      <trkpt lat="51.642528343945742" lon="5.12253382243216">
        <ele>14.83</ele>
        <time>2019-09-07T09:22:10Z</time>
      </trkpt>
      <trkpt lat="51.642461037263274" lon="5.122187230736017">
        <ele>14.699999999999999</ele>
        <time>2019-09-07T09:22:25Z</time>
      </trkpt>
      <trkpt lat="51.642429521307349" lon="5.121898390352726">
        <ele>14.550000000000001</ele>
        <time>2019-09-07T09:22:42Z</time>
      </trkpt>
      <trkpt lat="51.642416110262275" lon="5.1215301733464">
        <ele>14.41</ele>
        <time>2019-09-07T09:22:59Z</time>
      </trkpt>
      <trkpt lat="51.64242566563189" lon="5.121162123978138">
        <ele>14.279999999999999</ele>
        <time>2019-09-07T09:23:17Z</time>
      </trkpt>
      <trkpt lat="51.642418289557099" lon="5.120840929448605">
        <ele>14.130000000000001</ele>
        <time>2019-09-07T09:23:32Z</time>
      </trkpt>
      <trkpt lat="51.642442513257265" lon="5.120509173721075">
        <ele>13.98</ele>
        <time>2019-09-07T09:23:47Z</time>
      </trkpt>
      <trkpt lat="51.642507305368781" lon="5.12012243270874">
        <ele>13.85</ele>
        <time>2019-09-07T09:24:04Z</time>
      </trkpt>
      <trkpt lat="51.642542257905006" lon="5.119822192937136">
        <ele>13.74</ele>
        <time>2019-09-07T09:24:19Z</time>
      </trkpt>
      <trkpt lat="51.642574444413185" lon="5.11933914385736">
        <ele>13.609999999999999</ele>
        <time>2019-09-07T09:24:40Z</time>
      </trkpt>
      <trkpt lat="51.64258349686861" lon="5.118969334289432">
        <ele>13.460000000000001</ele>
        <time>2019-09-07T09:24:57Z</time>
      </trkpt>
      <trkpt lat="51.642567571252584" lon="5.118626179173589">
        <ele>13.35</ele>
        <time>2019-09-07T09:25:13Z</time>
      </trkpt>
      <trkpt lat="51.642566649243236" lon="5.118312109261751">
        <ele>13.25</ele>
        <time>2019-09-07T09:25:27Z</time>
      </trkpt>
      <trkpt lat="51.642596991732717" lon="5.117909023538232">
        <ele>13.140000000000001</ele>
        <time>2019-09-07T09:25:46Z</time>
      </trkpt>
      <trkpt lat="51.642555417492986" lon="5.117519767954946">
        <ele>13.06</ele>
        <time>2019-09-07T09:26:03Z</time>
      </trkpt>
      <trkpt lat="51.642497917637229" lon="5.117123387753964">
        <ele>12.970000000000001</ele>
        <time>2019-09-07T09:26:22Z</time>
      </trkpt>
      <trkpt lat="51.642457349225879" lon="5.116722313687205">
        <ele>12.9</ele>
        <time>2019-09-07T09:26:39Z</time>
      </trkpt>
      <trkpt lat="51.642407812178135" lon="5.116287041455507">
        <ele>12.800000000000001</ele>
        <time>2019-09-07T09:26:58Z</time>
      </trkpt>
      <trkpt lat="51.642394904047251" lon="5.116224177181721">
        <ele>15.039999999999999</ele>
        <time>2019-09-07T09:27:01Z</time>
      </trkpt>
      <trkpt lat="51.642270013689995" lon="5.115863168612123">
        <ele>14.970000000000001</ele>
        <time>2019-09-07T09:27:20Z</time>
      </trkpt>
      <trkpt lat="51.642064992338419" lon="5.115614393725991">
        <ele>14.91</ele>
        <time>2019-09-07T09:27:39Z</time>
      </trkpt>
      <trkpt lat="51.641874723136425" lon="5.115322452038527">
        <ele>14.85</ele>
        <time>2019-09-07T09:27:57Z</time>
      </trkpt>
      <trkpt lat="51.641693590208888" lon="5.115104019641876">
        <ele>14.82</ele>
        <time>2019-09-07T09:28:13Z</time>
      </trkpt>
      <trkpt lat="51.641489407047629" lon="5.11488332413137">
        <ele>14.779999999999999</ele>
        <time>2019-09-07T09:28:31Z</time>
      </trkpt>
      <trkpt lat="51.641268292441964" lon="5.114587442949414">
        <ele>16.370000000000001</ele>
        <time>2019-09-07T09:28:52Z</time>
      </trkpt>
      <trkpt lat="51.641075005754828" lon="5.114343697205186">
        <ele>16.32</ele>
        <time>2019-09-07T09:29:10Z</time>
      </trkpt>
      <trkpt lat="51.640886832028627" lon="5.114068100228906">
        <ele>16.289999999999999</ele>
        <time>2019-09-07T09:29:30Z</time>
      </trkpt>
      <trkpt lat="51.640694886445999" lon="5.113764004781842">
        <ele>16.25</ele>
        <time>2019-09-07T09:29:50Z</time>
      </trkpt>
      <trkpt lat="51.64058743044734" lon="5.113658225163817">
        <ele>13.949999999999999</ele>
        <time>2019-09-07T09:30:00Z</time>
      </trkpt>
      <trkpt lat="51.640384756028652" lon="5.113408695906401">
        <ele>13.9</ele>
        <time>2019-09-07T09:30:19Z</time>
      </trkpt>
      <trkpt lat="51.640234719961882" lon="5.113074257969856">
        <ele>12.199999999999999</ele>
        <time>2019-09-07T09:30:37Z</time>
      </trkpt>
      <trkpt lat="51.640089545398951" lon="5.112763959914446">
        <ele>12.130000000000001</ele>
        <time>2019-09-07T09:30:54Z</time>
      </trkpt>
      <trkpt lat="51.639982759952545" lon="5.112354503944516">
        <ele>12.01</ele>
        <time>2019-09-07T09:31:14Z</time>
      </trkpt>
      <trkpt lat="51.639914782717824" lon="5.11194228194654">
        <ele>11.91</ele>
        <time>2019-09-07T09:31:33Z</time>
      </trkpt>
      <trkpt lat="51.639840602874756" lon="5.111571131274104">
        <ele>11.83</ele>
        <time>2019-09-07T09:31:51Z</time>
      </trkpt>
      <trkpt lat="51.639802800491452" lon="5.11124306358397">
        <ele>11.73</ele>
        <time>2019-09-07T09:32:09Z</time>
      </trkpt>
      <trkpt lat="51.639736331999302" lon="5.11077887378633">
        <ele>11.6</ele>
        <time>2019-09-07T09:32:32Z</time>
      </trkpt>
      <trkpt lat="51.639662152156234" lon="5.110416440293193">
        <ele>11.51</ele>
        <time>2019-09-07T09:32:51Z</time>
      </trkpt>
      <trkpt lat="51.639590486884117" lon="5.110037662088871">
        <ele>11.42</ele>
        <time>2019-09-07T09:33:09Z</time>
      </trkpt>
      <trkpt lat="51.639544134959579" lon="5.109630720689893">
        <ele>11.279999999999999</ele>
        <time>2019-09-07T09:33:29Z</time>
      </trkpt>
      <trkpt lat="51.639455957338214" lon="5.109264347702265">
        <ele>11.199999999999999</ele>
        <time>2019-09-07T09:33:48Z</time>
      </trkpt>
      <trkpt lat="51.639357386156917" lon="5.108873331919313">
        <ele>11.16</ele>
        <time>2019-09-07T09:34:08Z</time>
      </trkpt>
      <trkpt lat="51.639349423348904" lon="5.108678368851543">
        <ele>11.06</ele>
        <time>2019-09-07T09:34:29Z</time>
      </trkpt>
      <trkpt lat="51.639290079474449" lon="5.108361449092627">
        <ele>10.98</ele>
        <time>2019-09-07T09:34:47Z</time>
      </trkpt>
      <trkpt lat="51.639210535213351" lon="5.107990466058254">
        <ele>10.9</ele>
        <time>2019-09-07T09:35:04Z</time>
      </trkpt>
      <trkpt lat="51.639136355370283" lon="5.107600456103683">
        <ele>10.859999999999999</ele>
        <time>2019-09-07T09:35:22Z</time>
      </trkpt>
      <trkpt lat="51.63911959156394" lon="5.10751873254776">
        <ele>14.140000000000001</ele>
        <time>2019-09-07T09:35:26Z</time>
      </trkpt>
      <trkpt lat="51.639115400612354" lon="5.107498783618212">
        <ele>14.130000000000001</ele>
        <time>2019-09-07T09:35:27Z</time>
      </trkpt>
      <trkpt lat="51.639106683433056" lon="5.107457879930735">
        <ele>10.130000000000001</ele>
        <time>2019-09-07T09:35:29Z</time>
      </trkpt>
      <trkpt lat="51.639102157205343" lon="5.107437092810869">
        <ele>10.109999999999999</ele>
        <time>2019-09-07T09:35:30Z</time>
      </trkpt>
      <trkpt lat="51.639066701754928" lon="5.107226204127073">
        <ele>12.34</ele>
        <time>2019-09-07T09:35:40Z</time>
      </trkpt>
      <trkpt lat="51.639039544388652" lon="5.107035683467984">
        <ele>9.710000000000001</ele>
        <time>2019-09-07T09:35:49Z</time>
      </trkpt>
      <trkpt lat="51.639021942391992" lon="5.106975920498371">
        <ele>12.43</ele>
        <time>2019-09-07T09:35:52Z</time>
      </trkpt>
      <trkpt lat="51.638948349282146" lon="5.106625892221928">
        <ele>12.41</ele>
        <time>2019-09-07T09:36:11Z</time>
      </trkpt>
      <trkpt lat="51.639057481661439" lon="5.106285000219941">
        <ele>12.359999999999999</ele>
        <time>2019-09-07T09:36:28Z</time>
      </trkpt>
      <trkpt lat="51.639170469716191" lon="5.105918543413281">
        <ele>13.050000000000001</ele>
        <time>2019-09-07T09:36:47Z</time>
      </trkpt>
      <trkpt lat="51.639272812753916" lon="5.105548733845353">
        <ele>12.970000000000001</ele>
        <time>2019-09-07T09:37:06Z</time>
      </trkpt>
      <trkpt lat="51.639399463310838" lon="5.105310184881091">
        <ele>13.640000000000001</ele>
        <time>2019-09-07T09:37:21Z</time>
      </trkpt>
      <trkpt lat="51.639617895707488" lon="5.104987733066082">
        <ele>13.470000000000001</ele>
        <time>2019-09-07T09:37:43Z</time>
      </trkpt>
      <trkpt lat="51.639801291748881" lon="5.104637034237385">
        <ele>13.32</ele>
        <time>2019-09-07T09:38:04Z</time>
      </trkpt>
      <trkpt lat="51.64002550765872" lon="5.104311900213361">
        <ele>13.220000000000001</ele>
        <time>2019-09-07T09:38:26Z</time>
      </trkpt>
      <trkpt lat="51.640243353322148" lon="5.104078212752938">
        <ele>13.18</ele>
        <time>2019-09-07T09:38:42Z</time>
      </trkpt>
      <trkpt lat="51.640552310273051" lon="5.103736147284508">
        <ele>13.029999999999999</ele>
        <time>2019-09-07T09:38:57Z</time>
      </trkpt>
      <trkpt lat="51.640941230580211" lon="5.103268353268504">
        <ele>12.91</ele>
        <time>2019-09-07T09:39:08Z</time>
      </trkpt>
      <trkpt lat="51.641220934689045" lon="5.102877086028457">
        <ele>10.49</ele>
        <time>2019-09-07T09:39:16Z</time>
      </trkpt>
      <trkpt lat="51.641846727579832" lon="5.102039817720652">
        <ele>10.449999999999999</ele>
        <time>2019-09-07T09:39:33Z</time>
      </trkpt>
      <trkpt lat="51.642243107780814" lon="5.10121344588697">
        <ele>10.390000000000001</ele>
        <time>2019-09-07T09:39:47Z</time>
      </trkpt>
      <trkpt lat="51.642649630084634" lon="5.100259501487017">
        <ele>10.25</ele>
        <time>2019-09-07T09:40:02Z</time>
      </trkpt>
      <trkpt lat="51.642774268984795" lon="5.099880807101727">
        <ele>10.16</ele>
        <time>2019-09-07T09:40:12Z</time>
      </trkpt>
      <trkpt lat="51.642770832404494" lon="5.099770668894053">
        <ele>10.130000000000001</ele>
        <time>2019-09-07T09:40:20Z</time>
      </trkpt>
      <trkpt lat="51.642787512391806" lon="5.099568581208587">
        <ele>10.050000000000001</ele>
        <time>2019-09-07T09:40:32Z</time>
      </trkpt>
      <trkpt lat="51.642739903181791" lon="5.099401194602251">
        <ele>9.92</ele>
        <time>2019-09-07T09:40:47Z</time>
      </trkpt>
      <trkpt lat="51.642575366422534" lon="5.099231125786901">
        <ele>9.789999999999999</ele>
        <time>2019-09-07T09:41:02Z</time>
      </trkpt>
      <trkpt lat="51.642361711710691" lon="5.099099362269044">
        <ele>9.699999999999999</ele>
        <time>2019-09-07T09:41:17Z</time>
      </trkpt>
      <trkpt lat="51.642202874645591" lon="5.098947901278734">
        <ele>9.59</ele>
        <time>2019-09-07T09:41:34Z</time>
      </trkpt>
      <trkpt lat="51.64198980666697" lon="5.098866261541843">
        <ele>7.94</ele>
        <time>2019-09-07T09:44:28Z</time>
      </trkpt>
      <trkpt lat="51.64182317443192" lon="5.098689571022987">
        <ele>7.89</ele>
        <time>2019-09-07T09:44:42Z</time>
      </trkpt>
      <trkpt lat="51.641587894409895" lon="5.098607009276748">
        <ele>7.8</ele>
        <time>2019-09-07T09:45:00Z</time>
      </trkpt>
      <trkpt lat="51.641549002379179" lon="5.098594604060054">
        <ele>11.18</ele>
        <time>2019-09-07T09:45:03Z</time>
      </trkpt>
      <trkpt lat="51.641535339877009" lon="5.098587647080421">
        <ele>11.18</ele>
        <time>2019-09-07T09:45:04Z</time>
      </trkpt>
      <trkpt lat="51.641336437314749" lon="5.098400227725506">
        <ele>11.06</ele>
        <time>2019-09-07T09:45:20Z</time>
      </trkpt>
      <trkpt lat="51.641215905547142" lon="5.098255723714829">
        <ele>8.76</ele>
        <time>2019-09-07T09:45:32Z</time>
      </trkpt>
      <trkpt lat="51.641013566404581" lon="5.097942491993308">
        <ele>8.720000000000001</ele>
        <time>2019-09-07T09:45:51Z</time>
      </trkpt>
      <trkpt lat="51.640895968303084" lon="5.097739482298493">
        <ele>8.68</ele>
        <time>2019-09-07T09:46:04Z</time>
      </trkpt>
      <trkpt lat="51.640738220885396" lon="5.097468830645084">
        <ele>8.619999999999999</ele>
        <time>2019-09-07T09:46:20Z</time>
      </trkpt>
      <trkpt lat="51.640584915876389" lon="5.097178649157286">
        <ele>8.58</ele>
        <time>2019-09-07T09:46:37Z</time>
      </trkpt>
      <trkpt lat="51.640417948365211" lon="5.096930544823408">
        <ele>8.52</ele>
        <time>2019-09-07T09:46:53Z</time>
      </trkpt>
      <trkpt lat="51.640331028029323" lon="5.096771372482181">
        <ele>8.5</ele>
        <time>2019-09-07T09:47:03Z</time>
      </trkpt>
      <trkpt lat="51.640258608385921" lon="5.096635418012738">
        <ele>7.24</ele>
        <time>2019-09-07T09:47:11Z</time>
      </trkpt>
      <trkpt lat="51.640251567587256" lon="5.096619995310903">
        <ele>7.22</ele>
        <time>2019-09-07T09:47:12Z</time>
      </trkpt>
      <trkpt lat="51.640239162370563" lon="5.096583869308233">
        <ele>10.83</ele>
        <time>2019-09-07T09:47:14Z</time>
      </trkpt>
      <trkpt lat="51.640069428831339" lon="5.096301482990384">
        <ele>10.789999999999999</ele>
        <time>2019-09-07T09:47:32Z</time>
      </trkpt>
      <trkpt lat="51.640022322535515" lon="5.096107609570026">
        <ele>8.49</ele>
        <time>2019-09-07T09:47:42Z</time>
      </trkpt>
      <trkpt lat="51.639974378049374" lon="5.095739727839828">
        <ele>8.449999999999999</ele>
        <time>2019-09-07T09:48:00Z</time>
      </trkpt>
      <trkpt lat="51.639994326978922" lon="5.095382239669561">
        <ele>8.4</ele>
        <time>2019-09-07T09:48:16Z</time>
      </trkpt>
      <trkpt lat="51.640052497386932" lon="5.094982255250216">
        <ele>8.33</ele>
        <time>2019-09-07T09:48:35Z</time>
      </trkpt>
      <trkpt lat="51.640110835433006" lon="5.094646140933037">
        <ele>8.26</ele>
        <time>2019-09-07T09:48:51Z</time>
      </trkpt>
      <trkpt lat="51.640164898708463" lon="5.094372304156423">
        <ele>8.220000000000001</ele>
        <time>2019-09-07T09:49:06Z</time>
      </trkpt>
      <trkpt lat="51.640232121571898" lon="5.094026131555438">
        <ele>8.140000000000001</ele>
        <time>2019-09-07T09:49:23Z</time>
      </trkpt>
      <trkpt lat="51.64026296697557" lon="5.093879364430904">
        <ele>8.109999999999999</ele>
        <time>2019-09-07T09:49:30Z</time>
      </trkpt>
      <trkpt lat="51.64032599888742" lon="5.093598989769816">
        <ele>8.02</ele>
        <time>2019-09-07T09:49:45Z</time>
      </trkpt>
      <trkpt lat="51.640338907018304" lon="5.093497652560473">
        <ele>8.01</ele>
        <time>2019-09-07T09:49:50Z</time>
      </trkpt>
      <trkpt lat="51.640385426580906" lon="5.093165561556816">
        <ele>7.89</ele>
        <time>2019-09-07T09:50:07Z</time>
      </trkpt>
      <trkpt lat="51.640311917290092" lon="5.093044862151146">
        <ele>7.83</ele>
        <time>2019-09-07T09:50:18Z</time>
      </trkpt>
      <trkpt lat="51.640284759923816" lon="5.093015190213919">
        <ele>7.78</ele>
        <time>2019-09-07T09:50:22Z</time>
      </trkpt>
      <trkpt lat="51.640221895650029" lon="5.092844953760505">
        <ele>7.67</ele>
        <time>2019-09-07T09:50:36Z</time>
      </trkpt>
      <trkpt lat="51.640215860679746" lon="5.092609003186226">
        <ele>7.57</ele>
        <time>2019-09-07T09:50:50Z</time>
      </trkpt>
      <trkpt lat="51.64018283598125" lon="5.092392917722464">
        <ele>7.44</ele>
        <time>2019-09-07T09:51:00Z</time>
      </trkpt>
      <trkpt lat="51.640141764655709" lon="5.09215135127306">
        <ele>7.32</ele>
        <time>2019-09-07T09:51:10Z</time>
      </trkpt>
      <trkpt lat="51.640113685280085" lon="5.09192168712616">
        <ele>7.18</ele>
        <time>2019-09-07T09:51:20Z</time>
      </trkpt>
      <trkpt lat="51.64015500806272" lon="5.091706020757556">
        <ele>7.04</ele>
        <time>2019-09-07T09:51:30Z</time>
      </trkpt>
      <trkpt lat="51.64022977463901" lon="5.09148683398962">
        <ele>6.79</ele>
        <time>2019-09-07T09:51:43Z</time>
      </trkpt>
      <trkpt lat="51.640236731618643" lon="5.091367643326521">
        <ele>6.73</ele>
        <time>2019-09-07T09:51:47Z</time>
      </trkpt>
      <trkpt lat="51.64024687372148" lon="5.091292206197977">
        <ele>6.71</ele>
        <time>2019-09-07T09:51:49Z</time>
      </trkpt>
      <trkpt lat="51.640281323343515" lon="5.091178463771939">
        <ele>6.66</ele>
        <time>2019-09-07T09:51:52Z</time>
      </trkpt>
      <trkpt lat="51.640347959473729" lon="5.090787447988987">
        <ele>6.54</ele>
        <time>2019-09-07T09:52:01Z</time>
      </trkpt>
      <trkpt lat="51.640426414087415" lon="5.090559124946594">
        <ele>6.39</ele>
        <time>2019-09-07T09:52:08Z</time>
      </trkpt>
      <trkpt lat="51.640494223684072" lon="5.090227201581001">
        <ele>6</ele>
        <time>2019-09-07T09:52:29Z</time>
      </trkpt>
      <trkpt lat="51.640548370778561" lon="5.089957807213068">
        <ele>5.92</ele>
        <time>2019-09-07T09:52:34Z</time>
      </trkpt>
      <trkpt lat="51.640561614185572" lon="5.089893182739615">
        <ele>5.89</ele>
        <time>2019-09-07T09:52:35Z</time>
      </trkpt>
      <trkpt lat="51.64063042961061" lon="5.089702159166336">
        <ele>5.84</ele>
        <time>2019-09-07T09:52:38Z</time>
      </trkpt>
      <trkpt lat="51.640640906989574" lon="5.089650107547641">
        <ele>5.82</ele>
        <time>2019-09-07T09:52:39Z</time>
      </trkpt>
      <trkpt lat="51.640648869797587" lon="5.089604258537293">
        <ele>5.81</ele>
        <time>2019-09-07T09:52:40Z</time>
      </trkpt>
      <trkpt lat="51.640672422945499" lon="5.089552626013756">
        <ele>5.79</ele>
        <time>2019-09-07T09:52:41Z</time>
      </trkpt>
      <trkpt lat="51.640687258914113" lon="5.089506274089217">
        <ele>5.79</ele>
        <time>2019-09-07T09:52:42Z</time>
      </trkpt>
      <trkpt lat="51.640911307185888" lon="5.088780568912625">
        <ele>5.67</ele>
        <time>2019-09-07T09:52:53Z</time>
      </trkpt>
      <trkpt lat="51.641076011583209" lon="5.088483430445194">
        <ele>5.63</ele>
        <time>2019-09-07T09:52:58Z</time>
      </trkpt>
      <trkpt lat="51.641129739582539" lon="5.088412687182427">
        <ele>5.63</ele>
        <time>2019-09-07T09:52:59Z</time>
      </trkpt>
      <trkpt lat="51.641149772331119" lon="5.088363150134683">
        <ele>5.63</ele>
        <time>2019-09-07T09:53:00Z</time>
      </trkpt>
      <trkpt lat="51.641158405691385" lon="5.088304979726672">
        <ele>5.62</ele>
        <time>2019-09-07T09:53:01Z</time>
      </trkpt>
      <trkpt lat="51.641169805079699" lon="5.088255442678928">
        <ele>5.62</ele>
        <time>2019-09-07T09:53:02Z</time>
      </trkpt>
      <trkpt lat="51.641204841434956" lon="5.088029382750392">
        <ele>5.56</ele>
        <time>2019-09-07T09:53:07Z</time>
      </trkpt>
      <trkpt lat="51.641209619119763" lon="5.08798043243587">
        <ele>5.56</ele>
        <time>2019-09-07T09:53:08Z</time>
      </trkpt>
      <trkpt lat="51.641200231388211" lon="5.087908515706658">
        <ele>5.55</ele>
        <time>2019-09-07T09:53:09Z</time>
      </trkpt>
      <trkpt lat="51.641187993809581" lon="5.087858559563756">
        <ele>5.54</ele>
        <time>2019-09-07T09:53:10Z</time>
      </trkpt>
      <trkpt lat="51.641180869191885" lon="5.087799550965428">
        <ele>5.51</ele>
        <time>2019-09-07T09:53:11Z</time>
      </trkpt>
      <trkpt lat="51.641183635219932" lon="5.087740207090974">
        <ele>5.49</ele>
        <time>2019-09-07T09:53:12Z</time>
      </trkpt>
      <trkpt lat="51.641168799251318" lon="5.087088430300355">
        <ele>5.39</ele>
        <time>2019-09-07T09:53:21Z</time>
      </trkpt>
      <trkpt lat="51.641169637441635" lon="5.087003773078322">
        <ele>5.39</ele>
        <time>2019-09-07T09:53:22Z</time>
      </trkpt>
      <trkpt lat="51.641187071800232" lon="5.086893634870648">
        <ele>5.38</ele>
        <time>2019-09-07T09:53:23Z</time>
      </trkpt>
      <trkpt lat="51.641181707382202" lon="5.086806882172823">
        <ele>5.36</ele>
        <time>2019-09-07T09:53:24Z</time>
      </trkpt>
      <trkpt lat="51.641185646876693" lon="5.086711831390858">
        <ele>5.36</ele>
        <time>2019-09-07T09:53:25Z</time>
      </trkpt>
      <trkpt lat="51.64118162356317" lon="5.086622228845954">
        <ele>5.35</ele>
        <time>2019-09-07T09:53:26Z</time>
      </trkpt>
      <trkpt lat="51.641190927475691" lon="5.086057037115097">
        <ele>5.33</ele>
        <time>2019-09-07T09:53:33Z</time>
      </trkpt>
      <trkpt lat="51.641189334914088" lon="5.085981180891395">
        <ele>5.33</ele>
        <time>2019-09-07T09:53:34Z</time>
      </trkpt>
      <trkpt lat="51.641175337135792" lon="5.085041569545865">
        <ele>7.7</ele>
        <time>2019-09-07T09:53:47Z</time>
      </trkpt>
      <trkpt lat="51.641185060143471" lon="5.084953643381596">
        <ele>7.69</ele>
        <time>2019-09-07T09:53:48Z</time>
      </trkpt>
      <trkpt lat="51.641233507543802" lon="5.084172198548913">
        <ele>7.63</ele>
        <time>2019-09-07T09:53:58Z</time>
      </trkpt>
      <trkpt lat="51.641230490058661" lon="5.084000704810023">
        <ele>7.62</ele>
        <time>2019-09-07T09:54:00Z</time>
      </trkpt>
      <trkpt lat="51.641208278015256" lon="5.083929542452097">
        <ele>7.61</ele>
        <time>2019-09-07T09:54:01Z</time>
      </trkpt>
      <trkpt lat="51.641141138970852" lon="5.083755366504192">
        <ele>7.6</ele>
        <time>2019-09-07T09:54:04Z</time>
      </trkpt>
      <trkpt lat="51.641102498397231" lon="5.08370004594326">
        <ele>7.59</ele>
        <time>2019-09-07T09:54:05Z</time>
      </trkpt>
      <trkpt lat="51.641063522547483" lon="5.083615304902196">
        <ele>8.470000000000001</ele>
        <time>2019-09-07T09:54:06Z</time>
      </trkpt>
      <trkpt lat="51.641022115945816" lon="5.083551602438092">
        <ele>8.449999999999999</ele>
        <time>2019-09-07T09:54:07Z</time>
      </trkpt>
      <trkpt lat="51.640987833961844" lon="5.08348111063242">
        <ele>8.44</ele>
        <time>2019-09-07T09:54:08Z</time>
      </trkpt>
      <trkpt lat="51.640848610550165" lon="5.083245746791363">
        <ele>8.4</ele>
        <time>2019-09-07T09:54:13Z</time>
      </trkpt>
      <trkpt lat="51.640820866450667" lon="5.083199897781014">
        <ele>8.390000000000001</ele>
        <time>2019-09-07T09:54:14Z</time>
      </trkpt>
      <trkpt lat="51.640801085159183" lon="5.08316301740706">
        <ele>8.369999999999999</ele>
        <time>2019-09-07T09:54:15Z</time>
      </trkpt>
      <trkpt lat="51.640775436535478" lon="5.083118341863155">
        <ele>8.359999999999999</ele>
        <time>2019-09-07T09:54:16Z</time>
      </trkpt>
      <trkpt lat="51.640745429322124" lon="5.083066122606397">
        <ele>8.359999999999999</ele>
        <time>2019-09-07T09:54:17Z</time>
      </trkpt>
      <trkpt lat="51.640503946691751" lon="5.08258986286819">
        <ele>8.24</ele>
        <time>2019-09-07T09:54:27Z</time>
      </trkpt>
      <trkpt lat="51.640181327238679" lon="5.081899110227823">
        <ele>8.130000000000001</ele>
        <time>2019-09-07T09:54:37Z</time>
      </trkpt>
      <trkpt lat="51.639974378049374" lon="5.081190336495638">
        <ele>8.01</ele>
        <time>2019-09-07T09:54:48Z</time>
      </trkpt>
      <trkpt lat="51.639977814629674" lon="5.081084556877613">
        <ele>7.98</ele>
        <time>2019-09-07T09:54:50Z</time>
      </trkpt>
      <trkpt lat="51.639969432726502" lon="5.081034852191806">
        <ele>7.97</ele>
        <time>2019-09-07T09:54:51Z</time>
      </trkpt>
      <trkpt lat="51.6399419400841" lon="5.080846678465605">
        <ele>7.91</ele>
        <time>2019-09-07T09:54:55Z</time>
      </trkpt>
      <trkpt lat="51.639943197369576" lon="5.080785909667611">
        <ele>7.89</ele>
        <time>2019-09-07T09:54:56Z</time>
      </trkpt>
      <trkpt lat="51.639943867921829" lon="5.080728493630886">
        <ele>7.89</ele>
        <time>2019-09-07T09:54:57Z</time>
      </trkpt>
      <trkpt lat="51.639940850436687" lon="5.080690775066614">
        <ele>7.87</ele>
        <time>2019-09-07T09:54:58Z</time>
      </trkpt>
      <trkpt lat="51.640216363593936" lon="5.080257346853614">
        <ele>7.71</ele>
        <time>2019-09-07T09:55:07Z</time>
      </trkpt>
      <trkpt lat="51.640266822651029" lon="5.080203283578157">
        <ele>7.7</ele>
        <time>2019-09-07T09:55:08Z</time>
      </trkpt>
      <trkpt lat="51.640309989452362" lon="5.08014963939786">
        <ele>7.69</ele>
        <time>2019-09-07T09:55:09Z</time>
      </trkpt>
      <trkpt lat="51.640347288921475" lon="5.08011250756681">
        <ele>7.67</ele>
        <time>2019-09-07T09:55:10Z</time>
      </trkpt>
      <trkpt lat="51.640393557026982" lon="5.080066490918398">
        <ele>7.65</ele>
        <time>2019-09-07T09:55:11Z</time>
      </trkpt>
      <trkpt lat="51.640423564240336" lon="5.080017959699035">
        <ele>7.65</ele>
        <time>2019-09-07T09:55:12Z</time>
      </trkpt>
      <trkpt lat="51.640438316389918" lon="5.079957526177168">
        <ele>7.61</ele>
        <time>2019-09-07T09:55:13Z</time>
      </trkpt>
      <trkpt lat="51.640436640009284" lon="5.079900529235601">
        <ele>7.58</ele>
        <time>2019-09-07T09:55:14Z</time>
      </trkpt>
      <trkpt lat="51.640420714393258" lon="5.079844957217574">
        <ele>7.58</ele>
        <time>2019-09-07T09:55:15Z</time>
      </trkpt>
      <trkpt lat="51.640354748815298" lon="5.079587884247303">
        <ele>7.5</ele>
        <time>2019-09-07T09:55:19Z</time>
      </trkpt>
      <trkpt lat="51.640122486278415" lon="5.078462529927492">
        <ele>7.18</ele>
        <time>2019-09-07T09:55:36Z</time>
      </trkpt>
      <trkpt lat="51.640056017786264" lon="5.077940924093127">
        <ele>7</ele>
        <time>2019-09-07T09:55:45Z</time>
      </trkpt>
      <trkpt lat="51.639830879867077" lon="5.077380007132888">
        <ele>6.8</ele>
        <time>2019-09-07T09:55:55Z</time>
      </trkpt>
      <trkpt lat="51.639765584841371" lon="5.077239945530891">
        <ele>6.74</ele>
        <time>2019-09-07T09:55:57Z</time>
      </trkpt>
      <trkpt lat="51.6397416125983" lon="5.077164256945252">
        <ele>6.72</ele>
        <time>2019-09-07T09:55:58Z</time>
      </trkpt>
      <trkpt lat="51.639705235138535" lon="5.0770961958915">
        <ele>6.69</ele>
        <time>2019-09-07T09:55:59Z</time>
      </trkpt>
      <trkpt lat="51.639621835201979" lon="5.076928976923227">
        <ele>6.63</ele>
        <time>2019-09-07T09:56:02Z</time>
      </trkpt>
      <trkpt lat="51.639596102759242" lon="5.076855132356286">
        <ele>6.6</ele>
        <time>2019-09-07T09:56:03Z</time>
      </trkpt>
      <trkpt lat="51.639521671459079" lon="5.076715825125575">
        <ele>6.54</ele>
        <time>2019-09-07T09:56:05Z</time>
      </trkpt>
      <trkpt lat="51.639442881569266" lon="5.076580289751291">
        <ele>6.5</ele>
        <time>2019-09-07T09:56:07Z</time>
      </trkpt>
      <trkpt lat="51.639370210468769" lon="5.076414328068495">
        <ele>6.43</ele>
        <time>2019-09-07T09:56:09Z</time>
      </trkpt>
      <trkpt lat="51.639331988990307" lon="5.076338723301888">
        <ele>6.42</ele>
        <time>2019-09-07T09:56:10Z</time>
      </trkpt>
      <trkpt lat="51.639217156916857" lon="5.076137725263834">
        <ele>3.97</ele>
        <time>2019-09-07T09:56:13Z</time>
      </trkpt>
      <trkpt lat="51.639178516343236" lon="5.076083410531282">
        <ele>3.94</ele>
        <time>2019-09-07T09:56:14Z</time>
      </trkpt>
      <trkpt lat="51.639139289036393" lon="5.076028676703572">
        <ele>3.91</ele>
        <time>2019-09-07T09:56:15Z</time>
      </trkpt>
      <trkpt lat="51.639107521623373" lon="5.07597385905683">
        <ele>3.9</ele>
        <time>2019-09-07T09:56:16Z</time>
      </trkpt>
      <trkpt lat="51.639079274609685" lon="5.075929099693894">
        <ele>3.87</ele>
        <time>2019-09-07T09:56:17Z</time>
      </trkpt>
      <trkpt lat="51.639053877443075" lon="5.075892051681876">
        <ele>3.85</ele>
        <time>2019-09-07T09:56:18Z</time>
      </trkpt>
      <trkpt lat="51.639040801674128" lon="5.075864978134632">
        <ele>3.83</ele>
        <time>2019-09-07T09:56:19Z</time>
      </trkpt>
      <trkpt lat="51.639023199677467" lon="5.075836731120944">
        <ele>3.81</ele>
        <time>2019-09-07T09:56:20Z</time>
      </trkpt>
      <trkpt lat="51.639000233262777" lon="5.075790463015437">
        <ele>3.79</ele>
        <time>2019-09-07T09:56:21Z</time>
      </trkpt>
      <trkpt lat="51.638984810560942" lon="5.075752325356007">
        <ele>3.77</ele>
        <time>2019-09-07T09:56:22Z</time>
      </trkpt>
      <trkpt lat="51.638983217999339" lon="5.075735645368695">
        <ele>3.76</ele>
        <time>2019-09-07T09:56:23Z</time>
      </trkpt>
      <trkpt lat="51.638886239379644" lon="5.075469771400094">
        <ele>3.65</ele>
        <time>2019-09-07T09:56:29Z</time>
      </trkpt>
      <trkpt lat="51.638854388147593" lon="5.075111361220479">
        <ele>-10.49</ele>
        <time>2019-09-07T09:57:03Z</time>
      </trkpt>
      <trkpt lat="51.638849107548594" lon="5.07511094212532">
        <ele>4.73</ele>
        <time>2019-09-07T09:57:05Z</time>
      </trkpt>
      <trkpt lat="51.638875845819712" lon="5.075163915753365">
        <ele>1.91</ele>
        <time>2019-09-07T10:00:26Z</time>
      </trkpt>
      <trkpt lat="51.638993192464113" lon="5.075117982923985">
        <ele>1.89</ele>
        <time>2019-09-07T10:00:40Z</time>
      </trkpt>
      <trkpt lat="51.63918798789382" lon="5.075071379542351">
        <ele>1.81</ele>
        <time>2019-09-07T10:01:00Z</time>
      </trkpt>
      <trkpt lat="51.639453778043389" lon="5.075076073408127">
        <ele>1.68</ele>
        <time>2019-09-07T10:01:22Z</time>
      </trkpt>
      <trkpt lat="51.639714706689119" lon="5.075016645714641">
        <ele>1.5</ele>
        <time>2019-09-07T10:01:43Z</time>
      </trkpt>
      <trkpt lat="51.639994997531176" lon="5.074938274919987">
        <ele>1.37</ele>
        <time>2019-09-07T10:02:01Z</time>
      </trkpt>
      <trkpt lat="51.640181075781584" lon="5.074905166402459">
        <ele>1.26</ele>
        <time>2019-09-07T10:02:12Z</time>
      </trkpt>
      <trkpt lat="51.640196582302451" lon="5.074904160574079">
        <ele>1.26</ele>
        <time>2019-09-07T10:02:13Z</time>
      </trkpt>
      <trkpt lat="51.640647947788239" lon="5.074748508632183">
        <ele>0.99</ele>
        <time>2019-09-07T10:02:40Z</time>
      </trkpt>
      <trkpt lat="51.640674937516451" lon="5.074731828644872">
        <ele>0.97</ele>
        <time>2019-09-07T10:02:42Z</time>
      </trkpt>
      <trkpt lat="51.640895046293736" lon="5.074661336839199">
        <ele>0.83</ele>
        <time>2019-09-07T10:02:55Z</time>
      </trkpt>
      <trkpt lat="51.641218587756157" lon="5.074600819498301">
        <ele>0.58</ele>
        <time>2019-09-07T10:03:19Z</time>
      </trkpt>
      <trkpt lat="51.641458729282022" lon="5.074545163661242">
        <ele>0.43</ele>
        <time>2019-09-07T10:03:38Z</time>
      </trkpt>
      <trkpt lat="51.641630977392197" lon="5.07448548451066">
        <ele>0.32</ele>
        <time>2019-09-07T10:03:50Z</time>
      </trkpt>
      <trkpt lat="51.641771961003542" lon="5.07441365160048">
        <ele>0.21</ele>
        <time>2019-09-07T10:04:01Z</time>
      </trkpt>
      <trkpt lat="51.64210463874042" lon="5.074174599722028">
        <ele>0</ele>
        <time>2019-09-07T10:04:24Z</time>
      </trkpt>
      <trkpt lat="51.642362549901009" lon="5.073912581428886">
        <ele>-0.19</ele>
        <time>2019-09-07T10:04:47Z</time>
      </trkpt>
      <trkpt lat="51.642533205449581" lon="5.073732705786824">
        <ele>-0.32</ele>
        <time>2019-09-07T10:05:00Z</time>
      </trkpt>
      <trkpt lat="51.642778040841222" lon="5.073439674451947">
        <ele>-0.55</ele>
        <time>2019-09-07T10:05:23Z</time>
      </trkpt>
      <trkpt lat="51.643094290047884" lon="5.073160473257303">
        <ele>-0.83</ele>
        <time>2019-09-07T10:05:47Z</time>
      </trkpt>
      <trkpt lat="51.64338924922049" lon="5.072910273447633">
        <ele>-1.16</ele>
        <time>2019-09-07T10:06:11Z</time>
      </trkpt>
      <trkpt lat="51.643668534234166" lon="5.072712879627943">
        <ele>-1.48</ele>
        <time>2019-09-07T10:06:32Z</time>
      </trkpt>
      <trkpt lat="51.644003977999091" lon="5.072533674538136">
        <ele>-1.79</ele>
        <time>2019-09-07T10:06:54Z</time>
      </trkpt>
      <trkpt lat="51.644193241372705" lon="5.072498470544815">
        <ele>-2.03</ele>
        <time>2019-09-07T10:07:10Z</time>
      </trkpt>
      <trkpt lat="51.644298434257507" lon="5.072498638182879">
        <ele>-2.13</ele>
        <time>2019-09-07T10:07:17Z</time>
      </trkpt>
      <trkpt lat="51.644314862787724" lon="5.072491765022278">
        <ele>-2.15</ele>
        <time>2019-09-07T10:07:18Z</time>
      </trkpt>
      <trkpt lat="51.644475543871522" lon="5.072417417541146">
        <ele>-2.3</ele>
        <time>2019-09-07T10:07:29Z</time>
      </trkpt>
      <trkpt lat="51.644690791144967" lon="5.072304429486394">
        <ele>-2.5</ele>
        <time>2019-09-07T10:07:42Z</time>
      </trkpt>
      <trkpt lat="51.645010141655803" lon="5.072223963215947">
        <ele>-2.69</ele>
        <time>2019-09-07T10:08:03Z</time>
      </trkpt>
      <trkpt lat="51.645182305946946" lon="5.072070406749845">
        <ele>-3.57</ele>
        <time>2019-09-07T10:08:18Z</time>
      </trkpt>
      <trkpt lat="51.645212648436427" lon="5.071897823363543">
        <ele>-3.63</ele>
        <time>2019-09-07T10:08:27Z</time>
      </trkpt>
      <trkpt lat="51.645233184099197" lon="5.071400525048375">
        <ele>-3.77</ele>
        <time>2019-09-07T10:08:48Z</time>
      </trkpt>
      <trkpt lat="51.645249193534255" lon="5.07088428363204">
        <ele>-3.91</ele>
        <time>2019-09-07T10:09:12Z</time>
      </trkpt>
      <trkpt lat="51.645226227119565" lon="5.070751598104835">
        <ele>-3.95</ele>
        <time>2019-09-07T10:09:18Z</time>
      </trkpt>
      <trkpt lat="51.645223377272487" lon="5.070735588669777">
        <ele>-3.96</ele>
        <time>2019-09-07T10:09:19Z</time>
      </trkpt>
      <trkpt lat="51.645278446376324" lon="5.070698708295822">
        <ele>-4</ele>
        <time>2019-09-07T10:09:25Z</time>
      </trkpt>
      <trkpt lat="51.645492855459452" lon="5.07076065056026">
        <ele>-1.9</ele>
        <time>2019-09-07T10:09:44Z</time>
      </trkpt>
      <trkpt lat="51.645542308688164" lon="5.070754196494818">
        <ele>-5.69</ele>
        <time>2019-09-07T10:09:48Z</time>
      </trkpt>
      <trkpt lat="51.64555387571454" lon="5.070752771571279">
        <ele>0.07</ele>
        <time>2019-09-07T10:09:49Z</time>
      </trkpt>
      <trkpt lat="51.64556653238833" lon="5.070747910067439">
        <ele>0.07</ele>
        <time>2019-09-07T10:09:50Z</time>
      </trkpt>
      <trkpt lat="51.645591342821717" lon="5.070740366354585">
        <ele>-2.45</ele>
        <time>2019-09-07T10:09:52Z</time>
      </trkpt>
      <trkpt lat="51.645853025838733" lon="5.070606088265777">
        <ele>-3.49</ele>
        <time>2019-09-07T10:10:02Z</time>
      </trkpt>
      <trkpt lat="51.645930223166943" lon="5.070544816553593">
        <ele>-3.51</ele>
        <time>2019-09-07T10:10:04Z</time>
      </trkpt>
      <trkpt lat="51.646221159026027" lon="5.07013033144176">
        <ele>-4.36</ele>
        <time>2019-09-07T10:10:15Z</time>
      </trkpt>
      <trkpt lat="51.646707141771913" lon="5.069468999281526">
        <ele>-4.45</ele>
        <time>2019-09-07T10:10:27Z</time>
      </trkpt>
      <trkpt lat="51.647062115371227" lon="5.068885367363691">
        <ele>-5.67</ele>
        <time>2019-09-07T10:10:36Z</time>
      </trkpt>
      <trkpt lat="51.647131349891424" lon="5.068782269954681">
        <ele>-5.69</ele>
        <time>2019-09-07T10:10:38Z</time>
      </trkpt>
      <trkpt lat="51.647161357104778" lon="5.068739270791411">
        <ele>-5.69</ele>
        <time>2019-09-07T10:10:39Z</time>
      </trkpt>
      <trkpt lat="51.647370401769876" lon="5.068410616368055">
        <ele>-4.41</ele>
        <time>2019-09-07T10:10:49Z</time>
      </trkpt>
      <trkpt lat="51.647447012364864" lon="5.068331742659211">
        <ele>-4.44</ele>
        <time>2019-09-07T10:10:53Z</time>
      </trkpt>
      <trkpt lat="51.647459249943495" lon="5.068315314128995">
        <ele>-21.550000000000001</ele>
        <time>2019-09-07T10:10:54Z</time>
      </trkpt>
      <trkpt lat="51.647475259378552" lon="5.068292934447527">
        <ele>-32.979999999999997</ele>
        <time>2019-09-07T10:10:55Z</time>
      </trkpt>
      <trkpt lat="51.647506859153509" lon="5.068271309137344">
        <ele>-10.140000000000001</ele>
        <time>2019-09-07T10:10:56Z</time>
      </trkpt>
      <trkpt lat="51.647526053711772" lon="5.068258317187429">
        <ele>-5.32</ele>
        <time>2019-09-07T10:10:57Z</time>
      </trkpt>
      <trkpt lat="51.647538123652339" lon="5.068246582522988">
        <ele>-5.33</ele>
        <time>2019-09-07T10:10:58Z</time>
      </trkpt>
      <trkpt lat="51.647665109485388" lon="5.068147173151374">
        <ele>-5.37</ele>
        <time>2019-09-07T10:11:03Z</time>
      </trkpt>
      <trkpt lat="51.647873064503074" lon="5.068051787093282">
        <ele>-5.42</ele>
        <time>2019-09-07T10:11:13Z</time>
      </trkpt>
      <trkpt lat="51.648009857162833" lon="5.068042231723666">
        <ele>-5.46</ele>
        <time>2019-09-07T10:11:25Z</time>
      </trkpt>
      <trkpt lat="51.648298110812902" lon="5.067924968898296">
        <ele>-5.86</ele>
        <time>2019-09-07T10:11:45Z</time>
      </trkpt>
      <trkpt lat="51.648311773315072" lon="5.067910719662905">
        <ele>-5.87</ele>
        <time>2019-09-07T10:11:46Z</time>
      </trkpt>
      <trkpt lat="51.648378325626254" lon="5.067838383838534">
        <ele>-5.88</ele>
        <time>2019-09-07T10:11:49Z</time>
      </trkpt>
      <trkpt lat="51.648430125787854" lon="5.067815249785781">
        <ele>-5.89</ele>
        <time>2019-09-07T10:11:50Z</time>
      </trkpt>
      <trkpt lat="51.648535067215562" lon="5.067733693867922">
        <ele>-5.92</ele>
        <time>2019-09-07T10:11:55Z</time>
      </trkpt>
      <trkpt lat="51.64855501614511" lon="5.067712655290961">
        <ele>-5.93</ele>
        <time>2019-09-07T10:11:56Z</time>
      </trkpt>
      <trkpt lat="51.64859265089035" lon="5.0676622800529">
        <ele>-5.94</ele>
        <time>2019-09-07T10:11:58Z</time>
      </trkpt>
      <trkpt lat="51.648647468537092" lon="5.067613078281283">
        <ele>-5.95</ele>
        <time>2019-09-07T10:11:59Z</time>
      </trkpt>
      <trkpt lat="51.64867227897048" lon="5.067584412172437">
        <ele>-5.96</ele>
        <time>2019-09-07T10:12:00Z</time>
      </trkpt>
      <trkpt lat="51.64870698004961" lon="5.067555075511336">
        <ele>-5.96</ele>
        <time>2019-09-07T10:12:01Z</time>
      </trkpt>
      <trkpt lat="51.648772358894348" lon="5.067514339461923">
        <ele>-5.97</ele>
        <time>2019-09-07T10:12:02Z</time>
      </trkpt>
      <trkpt lat="51.649075364693999" lon="5.066986866295338">
        <ele>-6.07</ele>
        <time>2019-09-07T10:12:12Z</time>
      </trkpt>
      <trkpt lat="51.649083159863949" lon="5.066907070577145">
        <ele>-6.08</ele>
        <time>2019-09-07T10:12:13Z</time>
      </trkpt>
      <trkpt lat="51.649262700229883" lon="5.066067958250642">
        <ele>-6.26</ele>
        <time>2019-09-07T10:12:26Z</time>
      </trkpt>
      <trkpt lat="51.649697469547391" lon="5.065164221450687">
        <ele>-6.8</ele>
        <time>2019-09-07T10:12:59Z</time>
      </trkpt>
      <trkpt lat="51.64979612454772" lon="5.065186684951186">
        <ele>-6.85</ele>
        <time>2019-09-07T10:13:03Z</time>
      </trkpt>
      <trkpt lat="51.649970971047878" lon="5.065216440707445">
        <ele>-6.98</ele>
        <time>2019-09-07T10:13:13Z</time>
      </trkpt>
      <trkpt lat="51.649999972432852" lon="5.065245190635324">
        <ele>-7</ele>
        <time>2019-09-07T10:13:15Z</time>
      </trkpt>
      <trkpt lat="51.650029895827174" lon="5.0653344579041">
        <ele>-7.12</ele>
        <time>2019-09-07T10:13:24Z</time>
      </trkpt>
      <trkpt lat="51.65007465519011" lon="5.065354239195585">
        <ele>-7.15</ele>
        <time>2019-09-07T10:13:27Z</time>
      </trkpt>
      <trkpt lat="51.650097034871578" lon="5.065366812050343">
        <ele>-7.2</ele>
        <time>2019-09-07T10:13:30Z</time>
      </trkpt>
      <trkpt lat="51.650424851104617" lon="5.06552891805768">
        <ele>-7.44</ele>
        <time>2019-09-07T10:13:53Z</time>
      </trkpt>
      <trkpt lat="51.650439854711294" lon="5.065530342981219">
        <ele>-7.49</ele>
        <time>2019-09-07T10:13:54Z</time>
      </trkpt>
      <trkpt lat="51.650476483628154" lon="5.065525649115443">
        <ele>-7.53</ele>
        <time>2019-09-07T10:13:55Z</time>
      </trkpt>
      <trkpt lat="51.65065267123282" lon="5.065628075972199">
        <ele>-7.75</ele>
        <time>2019-09-07T10:14:08Z</time>
      </trkpt>
      <trkpt lat="51.650980906561017" lon="5.065711978822947">
        <ele>-7.87</ele>
        <time>2019-09-07T10:14:28Z</time>
      </trkpt>
      <trkpt lat="51.65128206834197" lon="5.065729329362512">
        <ele>-8.029999999999999</ele>
        <time>2019-09-07T10:14:44Z</time>
      </trkpt>
      <trkpt lat="51.651493543758988" lon="5.06586167961359">
        <ele>-8.15</ele>
        <time>2019-09-07T10:15:01Z</time>
      </trkpt>
      <trkpt lat="51.651692111045122" lon="5.065992102026939">
        <ele>-8.109999999999999</ele>
        <time>2019-09-07T10:15:20Z</time>
      </trkpt>
      <trkpt lat="51.651876596733928" lon="5.066029401496053">
        <ele>-8.24</ele>
        <time>2019-09-07T10:15:36Z</time>
      </trkpt>
      <trkpt lat="51.65215521119535" lon="5.066124787554145">
        <ele>-9.460000000000001</ele>
        <time>2019-09-07T10:15:57Z</time>
      </trkpt>
      <trkpt lat="51.652374230325222" lon="5.066193183884025">
        <ele>-7.13</ele>
        <time>2019-09-07T10:16:13Z</time>
      </trkpt>
      <trkpt lat="51.652387473732233" lon="5.066192848607898">
        <ele>-7.14</ele>
        <time>2019-09-07T10:16:14Z</time>
      </trkpt>
      <trkpt lat="51.652643121778965" lon="5.066280104219914">
        <ele>-7.28</ele>
        <time>2019-09-07T10:16:30Z</time>
      </trkpt>
      <trkpt lat="51.652911007404327" lon="5.06642603315413">
        <ele>-7.31</ele>
        <time>2019-09-07T10:16:53Z</time>
      </trkpt>
      <trkpt lat="51.65314762853086" lon="5.066618984565139">
        <ele>-7.41</ele>
        <time>2019-09-07T10:17:14Z</time>
      </trkpt>
      <trkpt lat="51.653258604928851" lon="5.066668773069978">
        <ele>-7.52</ele>
        <time>2019-09-07T10:17:24Z</time>
      </trkpt>
      <trkpt lat="51.653362791985273" lon="5.066740270704031">
        <ele>-7.57</ele>
        <time>2019-09-07T10:17:33Z</time>
      </trkpt>
      <trkpt lat="51.653507128357887" lon="5.066791484132409">
        <ele>-7.65</ele>
        <time>2019-09-07T10:17:42Z</time>
      </trkpt>
      <trkpt lat="51.653843577951193" lon="5.067061046138406">
        <ele>-7.85</ele>
        <time>2019-09-07T10:18:03Z</time>
      </trkpt>
      <trkpt lat="51.654184637591243" lon="5.067342510446906">
        <ele>-11.390000000000001</ele>
        <time>2019-09-07T10:18:36Z</time>
      </trkpt>
      <trkpt lat="51.654193438589573" lon="5.067612072452903">
        <ele>-11.49</ele>
        <time>2019-09-07T10:19:02Z</time>
      </trkpt>
      <trkpt lat="51.654319670051336" lon="5.067715086042881">
        <ele>-12.630000000000001</ele>
        <time>2019-09-07T10:19:40Z</time>
      </trkpt>
      <trkpt lat="51.65430030785501" lon="5.06780443713069">
        <ele>-13.65</ele>
        <time>2019-09-07T10:21:14Z</time>
      </trkpt>
      <trkpt lat="51.654317323118448" lon="5.067898565903306">
        <ele>-13.619999999999999</ele>
        <time>2019-09-07T10:21:19Z</time>
      </trkpt>
      <trkpt lat="51.654324615374207" lon="5.068181706592441">
        <ele>-13.619999999999999</ele>
        <time>2019-09-07T10:21:33Z</time>
      </trkpt>
      <trkpt lat="51.654347330331802" lon="5.06846115924418">
        <ele>-13.57</ele>
        <time>2019-09-07T10:21:48Z</time>
      </trkpt>
      <trkpt lat="51.654422348365188" lon="5.068655870854855">
        <ele>-13.59</ele>
        <time>2019-09-07T10:22:01Z</time>
      </trkpt>
      <trkpt lat="51.654493678361177" lon="5.068835327401757">
        <ele>-13.57</ele>
        <time>2019-09-07T10:22:13Z</time>
      </trkpt>
      <trkpt lat="51.654592752456665" lon="5.069185355678201">
        <ele>-13.5</ele>
        <time>2019-09-07T10:22:32Z</time>
      </trkpt>
      <trkpt lat="51.654656957834959" lon="5.069598918780685">
        <ele>-13.5</ele>
        <time>2019-09-07T10:22:41Z</time>
      </trkpt>
      <trkpt lat="51.654725689440966" lon="5.069946181029081">
        <ele>-13.460000000000001</ele>
        <time>2019-09-07T10:22:51Z</time>
      </trkpt>
      <trkpt lat="51.65470389649272" lon="5.069999573752284">
        <ele>-13.470000000000001</ele>
        <time>2019-09-07T10:22:53Z</time>
      </trkpt>
      <trkpt lat="51.654694173485041" lon="5.070028407499194">
        <ele>-13.449999999999999</ele>
        <time>2019-09-07T10:22:54Z</time>
      </trkpt>
      <trkpt lat="51.65466969832778" lon="5.070072496309876">
        <ele>-13.460000000000001</ele>
        <time>2019-09-07T10:22:56Z</time>
      </trkpt>
      <trkpt lat="51.654659807682037" lon="5.070466529577971">
        <ele>-13.470000000000001</ele>
        <time>2019-09-07T10:23:21Z</time>
      </trkpt>
      <trkpt lat="51.654724096879363" lon="5.070521933957934">
        <ele>-11.24</ele>
        <time>2019-09-07T10:23:26Z</time>
      </trkpt>
      <trkpt lat="51.654781764373183" lon="5.070670880377293">
        <ele>-11.23</ele>
        <time>2019-09-07T10:23:36Z</time>
      </trkpt>
      <trkpt lat="51.654827697202563" lon="5.070951003581286">
        <ele>-10.42</ele>
        <time>2019-09-07T10:23:53Z</time>
      </trkpt>
      <trkpt lat="51.654684282839298" lon="5.071226097643375">
        <ele>-9.66</ele>
        <time>2019-09-07T10:24:13Z</time>
      </trkpt>
      <trkpt lat="51.654640613123775" lon="5.071306899189949">
        <ele>-9.68</ele>
        <time>2019-09-07T10:24:17Z</time>
      </trkpt>
      <trkpt lat="51.654486889019608" lon="5.071350988000631">
        <ele>-9.74</ele>
        <time>2019-09-07T10:24:30Z</time>
      </trkpt>
      <trkpt lat="51.654301146045327" lon="5.071359956637025">
        <ele>-9.85</ele>
        <time>2019-09-07T10:24:46Z</time>
      </trkpt>
      <trkpt lat="51.654117917641997" lon="5.071368589997292">
        <ele>-9.859999999999999</ele>
        <time>2019-09-07T10:24:59Z</time>
      </trkpt>
      <trkpt lat="51.653875513002276" lon="5.071380492299795">
        <ele>-9.869999999999999</ele>
        <time>2019-09-07T10:25:15Z</time>
      </trkpt>
      <trkpt lat="51.653860760852695" lon="5.071390299126506">
        <ele>-9.880000000000001</ele>
        <time>2019-09-07T10:25:16Z</time>
      </trkpt>
      <trkpt lat="51.653867550194263" lon="5.071754492819309">
        <ele>-9.84</ele>
        <time>2019-09-07T10:25:33Z</time>
      </trkpt>
      <trkpt lat="51.653845841065049" lon="5.072135869413614">
        <ele>-8.94</ele>
        <time>2019-09-07T10:25:51Z</time>
      </trkpt>
      <trkpt lat="51.6537378821522" lon="5.072511546313763">
        <ele>-8.84</ele>
        <time>2019-09-07T10:26:10Z</time>
      </trkpt>
      <trkpt lat="51.653653644025326" lon="5.072837267071009">
        <ele>-8.82</ele>
        <time>2019-09-07T10:26:23Z</time>
      </trkpt>
      <trkpt lat="51.653613662347198" lon="5.073124766349793">
        <ele>-8.83</ele>
        <time>2019-09-07T10:26:36Z</time>
      </trkpt>
      <trkpt lat="51.653536213561893" lon="5.073398435488343">
        <ele>-8.83</ele>
        <time>2019-09-07T10:26:50Z</time>
      </trkpt>
      <trkpt lat="51.653463710099459" lon="5.073726586997509">
        <ele>-8.810000000000001</ele>
        <time>2019-09-07T10:27:05Z</time>
      </trkpt>
      <trkpt lat="51.6535082180053" lon="5.073886346071959">
        <ele>-8.800000000000001</ele>
        <time>2019-09-07T10:27:13Z</time>
      </trkpt>
      <trkpt lat="51.653471169993281" lon="5.07424752227962">
        <ele>-8.77</ele>
        <time>2019-09-07T10:27:29Z</time>
      </trkpt>
      <trkpt lat="51.653451221063733" lon="5.074511636048555">
        <ele>-8.74</ele>
        <time>2019-09-07T10:27:40Z</time>
      </trkpt>
      <trkpt lat="51.65344568900764" lon="5.07460861466825">
        <ele>-8.74</ele>
        <time>2019-09-07T10:27:44Z</time>
      </trkpt>
      <trkpt lat="51.653452562168241" lon="5.074719255790114">
        <ele>-8.74</ele>
        <time>2019-09-07T10:27:49Z</time>
      </trkpt>
      <trkpt lat="51.653464296832681" lon="5.075044305995107">
        <ele>-8.699999999999999</ele>
        <time>2019-09-07T10:28:02Z</time>
      </trkpt>
      <trkpt lat="51.653493633493781" lon="5.075292829424143">
        <ele>-8.66</ele>
        <time>2019-09-07T10:28:12Z</time>
      </trkpt>
      <trkpt lat="51.653505116701126" lon="5.075612599030137">
        <ele>-8.630000000000001</ele>
        <time>2019-09-07T10:28:25Z</time>
      </trkpt>
      <trkpt lat="51.65354291908443" lon="5.076018450781703">
        <ele>-8.560000000000001</ele>
        <time>2019-09-07T10:28:42Z</time>
      </trkpt>
      <trkpt lat="51.653603436425328" lon="5.076218107715249">
        <ele>-8.48</ele>
        <time>2019-09-07T10:28:53Z</time>
      </trkpt>
      <trkpt lat="51.653616931289434" lon="5.076594706624746">
        <ele>-8.42</ele>
        <time>2019-09-07T10:29:11Z</time>
      </trkpt>
      <trkpt lat="51.653613662347198" lon="5.076729487627745">
        <ele>-8.4</ele>
        <time>2019-09-07T10:29:16Z</time>
      </trkpt>
      <trkpt lat="51.653627995401621" lon="5.077059231698513">
        <ele>-8.32</ele>
        <time>2019-09-07T10:29:29Z</time>
      </trkpt>
      <trkpt lat="51.653627911582589" lon="5.077156713232398">
        <ele>-8.300000000000001</ele>
        <time>2019-09-07T10:29:33Z</time>
      </trkpt>
      <trkpt lat="51.65350528433919" lon="5.077576730400324">
        <ele>-8.18</ele>
        <time>2019-09-07T10:29:51Z</time>
      </trkpt>
      <trkpt lat="51.653372682631016" lon="5.07790052331984">
        <ele>-8.119999999999999</ele>
        <time>2019-09-07T10:30:06Z</time>
      </trkpt>
      <trkpt lat="51.653230441734195" lon="5.078254826366901">
        <ele>-8.02</ele>
        <time>2019-09-07T10:30:23Z</time>
      </trkpt>
      <trkpt lat="51.653155507519841" lon="5.078584151342511">
        <ele>-7.91</ele>
        <time>2019-09-07T10:30:40Z</time>
      </trkpt>
      <trkpt lat="51.653177300468087" lon="5.078667216002941">
        <ele>-7.88</ele>
        <time>2019-09-07T10:30:44Z</time>
      </trkpt>
      <trkpt lat="51.65318476036191" lon="5.078688841313124">
        <ele>-7.87</ele>
        <time>2019-09-07T10:30:45Z</time>
      </trkpt>
      <trkpt lat="51.653277883306146" lon="5.07897793315351">
        <ele>-7.79</ele>
        <time>2019-09-07T10:30:59Z</time>
      </trkpt>
      <trkpt lat="51.653284756466746" lon="5.078990003094077">
        <ele>-7.78</ele>
        <time>2019-09-07T10:31:00Z</time>
      </trkpt>
      <trkpt lat="51.653291378170252" lon="5.079007018357515">
        <ele>-7.78</ele>
        <time>2019-09-07T10:31:01Z</time>
      </trkpt>
      <trkpt lat="51.653386512771249" lon="5.07935025729239">
        <ele>-7.7</ele>
        <time>2019-09-07T10:31:17Z</time>
      </trkpt>
      <trkpt lat="51.653474187478423" lon="5.079696513712406">
        <ele>-9.869999999999999</ele>
        <time>2019-09-07T10:31:33Z</time>
      </trkpt>
      <trkpt lat="51.653542667627335" lon="5.080049810931087">
        <ele>-9.789999999999999</ele>
        <time>2019-09-07T10:31:48Z</time>
      </trkpt>
      <trkpt lat="51.653618104755878" lon="5.080402940511704">
        <ele>-9.75</ele>
        <time>2019-09-07T10:32:04Z</time>
      </trkpt>
      <trkpt lat="51.653646603226662" lon="5.080612488090992">
        <ele>-9.710000000000001</ele>
        <time>2019-09-07T10:32:13Z</time>
      </trkpt>
      <trkpt lat="51.653712149709463" lon="5.080919098109007">
        <ele>-9.67</ele>
        <time>2019-09-07T10:32:27Z</time>
      </trkpt>
      <trkpt lat="51.65374324657023" lon="5.081091346219182">
        <ele>-9.66</ele>
        <time>2019-09-07T10:32:35Z</time>
      </trkpt>
      <trkpt lat="51.653829915449023" lon="5.081426538527012">
        <ele>-9.609999999999999</ele>
        <time>2019-09-07T10:32:51Z</time>
      </trkpt>
      <trkpt lat="51.653917087242007" lon="5.081764413043857">
        <ele>-9.550000000000001</ele>
        <time>2019-09-07T10:33:06Z</time>
      </trkpt>
      <trkpt lat="51.654013227671385" lon="5.082072112709284">
        <ele>-9.49</ele>
        <time>2019-09-07T10:33:21Z</time>
      </trkpt>
      <trkpt lat="51.654068296775222" lon="5.082384254783392">
        <ele>-9.460000000000001</ele>
        <time>2019-09-07T10:33:36Z</time>
      </trkpt>
      <trkpt lat="51.654159324243665" lon="5.082726823166013">
        <ele>-9.44</ele>
        <time>2019-09-07T10:33:52Z</time>
      </trkpt>
      <trkpt lat="51.654251273721457" lon="5.083049358800054">
        <ele>-9.43</ele>
        <time>2019-09-07T10:34:08Z</time>
      </trkpt>
      <trkpt lat="51.654280610382557" lon="5.083294110372663">
        <ele>-9.43</ele>
        <time>2019-09-07T10:34:19Z</time>
      </trkpt>
      <trkpt lat="51.654282454401255" lon="5.083350855857134">
        <ele>-9.43</ele>
        <time>2019-09-07T10:34:21Z</time>
      </trkpt>
      <trkpt lat="51.654353113844991" lon="5.083476165309548">
        <ele>-9.43</ele>
        <time>2019-09-07T10:34:28Z</time>
      </trkpt>
      <trkpt lat="51.654424024745822" lon="5.083513045683503">
        <ele>-9.42</ele>
        <time>2019-09-07T10:34:33Z</time>
      </trkpt>
      <trkpt lat="51.654555704444647" lon="5.083566522225738">
        <ele>-9.44</ele>
        <time>2019-09-07T10:34:42Z</time>
      </trkpt>
      <trkpt lat="51.65458763949573" lon="5.083575658500195">
        <ele>-6.87</ele>
        <time>2019-09-07T10:34:45Z</time>
      </trkpt>
      <trkpt lat="51.654758881777525" lon="5.08346987888217">
        <ele>-6</ele>
        <time>2019-09-07T10:34:59Z</time>
      </trkpt>
      <trkpt lat="51.654857872053981" lon="5.083430483937264">
        <ele>-8.800000000000001</ele>
        <time>2019-09-07T10:35:06Z</time>
      </trkpt>
      <trkpt lat="51.655101869255304" lon="5.083322105929256">
        <ele>-8.74</ele>
        <time>2019-09-07T10:35:22Z</time>
      </trkpt>
      <trkpt lat="51.655172612518072" lon="5.083274412900209">
        <ele>-6.34</ele>
        <time>2019-09-07T10:35:27Z</time>
      </trkpt>
      <trkpt lat="51.655356511473656" lon="5.083137704059482">
        <ele>-5.38</ele>
        <time>2019-09-07T10:35:40Z</time>
      </trkpt>
      <trkpt lat="51.655475366860628" lon="5.082943663001061">
        <ele>-3.48</ele>
        <time>2019-09-07T10:35:53Z</time>
      </trkpt>
      <trkpt lat="51.655556000769138" lon="5.082875937223434">
        <ele>-0.82</ele>
        <time>2019-09-07T10:35:59Z</time>
      </trkpt>
      <trkpt lat="51.655674604699016" lon="5.08275062777102">
        <ele>-0.83</ele>
        <time>2019-09-07T10:36:10Z</time>
      </trkpt>
      <trkpt lat="51.655689273029566" lon="5.082723386585712">
        <ele>-0.82</ele>
        <time>2019-09-07T10:36:12Z</time>
      </trkpt>
      <trkpt lat="51.655731266364455" lon="5.082680471241474">
        <ele>-0.83</ele>
        <time>2019-09-07T10:36:16Z</time>
      </trkpt>
      <trkpt lat="51.655829837545753" lon="5.082666808739305">
        <ele>-0.82</ele>
        <time>2019-09-07T10:36:22Z</time>
      </trkpt>
      <trkpt lat="51.655884152278304" lon="5.082676196470857">
        <ele>-3.36</ele>
        <time>2019-09-07T10:36:26Z</time>
      </trkpt>
      <trkpt lat="51.65597828105092" lon="5.082668820396066">
        <ele>-4.12</ele>
        <time>2019-09-07T10:36:34Z</time>
      </trkpt>
      <trkpt lat="51.656108535826206" lon="5.082632191479206">
        <ele>-6.6</ele>
        <time>2019-09-07T10:36:45Z</time>
      </trkpt>
      <trkpt lat="51.65618690662086" lon="5.082629760727286">
        <ele>-7.33</ele>
        <time>2019-09-07T10:36:54Z</time>
      </trkpt>
      <trkpt lat="51.656273659318686" lon="5.082750963047147">
        <ele>-7.24</ele>
        <time>2019-09-07T10:37:11Z</time>
      </trkpt>
      <trkpt lat="51.65632227435708" lon="5.082956990227103">
        <ele>2.53</ele>
        <time>2019-09-07T12:44:19Z</time>
      </trkpt>
      <trkpt lat="51.656316826120019" lon="5.082950117066503">
        <ele>6.02</ele>
        <time>2019-09-07T12:44:23Z</time>
      </trkpt>
      <trkpt lat="51.656314646825194" lon="5.082947686314583">
        <ele>6.02</ele>
        <time>2019-09-07T12:44:24Z</time>
      </trkpt>
      <trkpt lat="51.656313808634877" lon="5.082944920286536">
        <ele>3.67</ele>
        <time>2019-09-07T12:44:27Z</time>
      </trkpt>
      <trkpt lat="51.65624750778079" lon="5.082788346335292">
        <ele>0.45</ele>
        <time>2019-09-07T12:44:49Z</time>
      </trkpt>
      <trkpt lat="51.656237198039889" lon="5.082783233374357">
        <ele>7.31</ele>
        <time>2019-09-07T12:44:50Z</time>
      </trkpt>
      <trkpt lat="51.656229151412845" lon="5.082783987745643">
        <ele>7.29</ele>
        <time>2019-09-07T12:44:51Z</time>
      </trkpt>
      <trkpt lat="51.656218003481627" lon="5.082782059907913">
        <ele>1.93</ele>
        <time>2019-09-07T12:44:52Z</time>
      </trkpt>
      <trkpt lat="51.656208783388138" lon="5.082783652469516">
        <ele>5.49</ele>
        <time>2019-09-07T12:44:53Z</time>
      </trkpt>
      <trkpt lat="51.656082635745406" lon="5.082802176475525">
        <ele>6.37</ele>
        <time>2019-09-07T12:45:07Z</time>
      </trkpt>
      <trkpt lat="51.655658092349768" lon="5.082865124568343">
        <ele>9.960000000000001</ele>
        <time>2019-09-07T12:45:40Z</time>
      </trkpt>
      <trkpt lat="51.655424823984504" lon="5.083135021850467">
        <ele>7.61</ele>
        <time>2019-09-07T12:46:07Z</time>
      </trkpt>
      <trkpt lat="51.65532885119319" lon="5.083488738164306">
        <ele>6.08</ele>
        <time>2019-09-07T12:46:23Z</time>
      </trkpt>
      <trkpt lat="51.655307058244944" lon="5.083602480590344">
        <ele>4.51</ele>
        <time>2019-09-07T12:46:29Z</time>
      </trkpt>
      <trkpt lat="51.655248804017901" lon="5.084031047299504">
        <ele>4.5</ele>
        <time>2019-09-07T12:46:49Z</time>
      </trkpt>
      <trkpt lat="51.655073370784521" lon="5.08435819298029">
        <ele>3.76</ele>
        <time>2019-09-07T12:47:05Z</time>
      </trkpt>
      <trkpt lat="51.654952419921756" lon="5.084659522399306">
        <ele>3.79</ele>
        <time>2019-09-07T12:47:20Z</time>
      </trkpt>
      <trkpt lat="51.654833480715752" lon="5.084964372217655">
        <ele>2.13</ele>
        <time>2019-09-07T12:47:36Z</time>
      </trkpt>
      <trkpt lat="51.654721666127443" lon="5.085328230634332">
        <ele>2.17</ele>
        <time>2019-09-07T12:47:54Z</time>
      </trkpt>
      <trkpt lat="51.654701884835958" lon="5.085525289177895">
        <ele>2.17</ele>
        <time>2019-09-07T12:48:03Z</time>
      </trkpt>
      <trkpt lat="51.654646899551153" lon="5.086041949689388">
        <ele>2.18</ele>
        <time>2019-09-07T12:48:25Z</time>
      </trkpt>
      <trkpt lat="51.65461060591042" lon="5.086420895531774">
        <ele>2.18</ele>
        <time>2019-09-07T12:48:42Z</time>
      </trkpt>
      <trkpt lat="51.654643882066011" lon="5.086800092831254">
        <ele>2.19</ele>
        <time>2019-09-07T12:48:58Z</time>
      </trkpt>
      <trkpt lat="51.654674811288714" lon="5.08697577752173">
        <ele>2.2</ele>
        <time>2019-09-07T12:49:06Z</time>
      </trkpt>
      <trkpt lat="51.654745554551482" lon="5.087359417229891">
        <ele>2.24</ele>
        <time>2019-09-07T12:49:23Z</time>
      </trkpt>
      <trkpt lat="51.654799366369843" lon="5.087718581780791">
        <ele>2.27</ele>
        <time>2019-09-07T12:49:40Z</time>
      </trkpt>
      <trkpt lat="51.65486759506166" lon="5.088021419942379">
        <ele>2.29</ele>
        <time>2019-09-07T12:49:54Z</time>
      </trkpt>
      <trkpt lat="51.654910175129771" lon="5.088210264220834">
        <ele>2.29</ele>
        <time>2019-09-07T12:50:03Z</time>
      </trkpt>
      <trkpt lat="51.654963986948133" lon="5.088575715199113">
        <ele>2.33</ele>
        <time>2019-09-07T12:50:18Z</time>
      </trkpt>
      <trkpt lat="51.655016038566828" lon="5.088892718777061">
        <ele>2.35</ele>
        <time>2019-09-07T12:50:34Z</time>
      </trkpt>
      <trkpt lat="51.655050404369831" lon="5.088989865034819">
        <ele>2.36</ele>
        <time>2019-09-07T12:50:39Z</time>
      </trkpt>
      <trkpt lat="51.65510312654078" lon="5.089170495048165">
        <ele>2.38</ele>
        <time>2019-09-07T12:50:49Z</time>
      </trkpt>
      <trkpt lat="51.655158614739776" lon="5.089510045945644">
        <ele>2.41</ele>
        <time>2019-09-07T12:51:04Z</time>
      </trkpt>
      <trkpt lat="51.655233465135098" lon="5.089858146384358">
        <ele>2.43</ele>
        <time>2019-09-07T12:51:20Z</time>
      </trkpt>
      <trkpt lat="51.655306303873658" lon="5.090171881020069">
        <ele>2.44</ele>
        <time>2019-09-07T12:51:34Z</time>
      </trkpt>
      <trkpt lat="51.655313847586513" lon="5.090190069749951">
        <ele>2.44</ele>
        <time>2019-09-07T12:51:35Z</time>
      </trkpt>
      <trkpt lat="51.655376460403204" lon="5.090413363650441">
        <ele>2.45</ele>
        <time>2019-09-07T12:51:46Z</time>
      </trkpt>
      <trkpt lat="51.655442509800196" lon="5.090800859034061">
        <ele>2.46</ele>
        <time>2019-09-07T12:52:05Z</time>
      </trkpt>
      <trkpt lat="51.65545055642724" lon="5.090860538184643">
        <ele>2.46</ele>
        <time>2019-09-07T12:52:08Z</time>
      </trkpt>
      <trkpt lat="51.655456088483334" lon="5.090978974476457">
        <ele>2.47</ele>
        <time>2019-09-07T12:52:14Z</time>
      </trkpt>
      <trkpt lat="51.655437396839261" lon="5.09141500107944">
        <ele>2.49</ele>
        <time>2019-09-07T12:52:33Z</time>
      </trkpt>
      <trkpt lat="51.655434966087341" lon="5.09176779538393">
        <ele>2.51</ele>
        <time>2019-09-07T12:52:50Z</time>
      </trkpt>
      <trkpt lat="51.655416190624237" lon="5.092073734849691">
        <ele>2.51</ele>
        <time>2019-09-07T12:53:04Z</time>
      </trkpt>
      <trkpt lat="51.655350560322404" lon="5.092523843050003">
        <ele>2.52</ele>
        <time>2019-09-07T12:53:23Z</time>
      </trkpt>
      <trkpt lat="51.655316362157464" lon="5.092890970408917">
        <ele>2.53</ele>
        <time>2019-09-07T12:53:40Z</time>
      </trkpt>
      <trkpt lat="51.655301274731755" lon="5.093143936246634">
        <ele>5.05</ele>
        <time>2019-09-07T12:53:50Z</time>
      </trkpt>
      <trkpt lat="51.655253162607551" lon="5.093538975343108">
        <ele>5.05</ele>
        <time>2019-09-07T12:54:07Z</time>
      </trkpt>
      <trkpt lat="51.655205972492695" lon="5.093966871500015">
        <ele>5.06</ele>
        <time>2019-09-07T12:54:26Z</time>
      </trkpt>
      <trkpt lat="51.655687596648932" lon="5.095086777582765">
        <ele>5.02</ele>
        <time>2019-09-07T12:55:41Z</time>
      </trkpt>
      <trkpt lat="51.655874932184815" lon="5.095083089545369">
        <ele>4.99</ele>
        <time>2019-09-07T12:55:55Z</time>
      </trkpt>
      <trkpt lat="51.655921367928386" lon="5.095069510862231">
        <ele>4.95</ele>
        <time>2019-09-07T12:56:08Z</time>
      </trkpt>
      <trkpt lat="51.656006360426545" lon="5.095055513083935">
        <ele>4.89</ele>
        <time>2019-09-07T12:56:34Z</time>
      </trkpt>
      <trkpt lat="51.656197970733047" lon="5.09501812979579">
        <ele>4.87</ele>
        <time>2019-09-07T12:56:49Z</time>
      </trkpt>
      <trkpt lat="51.656207693740726" lon="5.094994241371751">
        <ele>4.85</ele>
        <time>2019-09-07T12:57:06Z</time>
      </trkpt>
      <trkpt lat="51.656251447275281" lon="5.095006143674254">
        <ele>4.84</ele>
        <time>2019-09-07T12:57:24Z</time>
      </trkpt>
      <trkpt lat="51.65631640702486" lon="5.09500346146524">
        <ele>4.84</ele>
        <time>2019-09-07T12:57:29Z</time>
      </trkpt>
      <trkpt lat="51.656557638198137" lon="5.094900950789452">
        <ele>4.81</ele>
        <time>2019-09-07T12:57:47Z</time>
      </trkpt>
      <trkpt lat="51.656787721440196" lon="5.094859628006816">
        <ele>4.76</ele>
        <time>2019-09-07T12:58:06Z</time>
      </trkpt>
      <trkpt lat="51.656936081126332" lon="5.094832722097635">
        <ele>4.75</ele>
        <time>2019-09-07T12:58:16Z</time>
      </trkpt>
      <trkpt lat="51.656988970935345" lon="5.094818724319339">
        <ele>4.76</ele>
        <time>2019-09-07T12:58:20Z</time>
      </trkpt>
      <trkpt lat="51.65721301920712" lon="5.094845294952393">
        <ele>4.75</ele>
        <time>2019-09-07T12:58:36Z</time>
      </trkpt>
      <trkpt lat="51.65726481936872" lon="5.094857616350055">
        <ele>4.74</ele>
        <time>2019-09-07T12:58:40Z</time>
      </trkpt>
      <trkpt lat="51.657509990036488" lon="5.094913858920336">
        <ele>5.63</ele>
        <time>2019-09-07T12:58:57Z</time>
      </trkpt>
      <trkpt lat="51.65764250792563" lon="5.094973286613822">
        <ele>5.61</ele>
        <time>2019-09-07T12:59:09Z</time>
      </trkpt>
      <trkpt lat="51.657774271443486" lon="5.094980830326676">
        <ele>3.17</ele>
        <time>2019-09-07T12:59:24Z</time>
      </trkpt>
      <trkpt lat="51.658056322485209" lon="5.094906147569418">
        <ele>3.1</ele>
        <time>2019-09-07T12:59:49Z</time>
      </trkpt>
      <trkpt lat="51.658232510089874" lon="5.094811515882611">
        <ele>2.14</ele>
        <time>2019-09-07T13:00:05Z</time>
      </trkpt>
      <trkpt lat="51.658295709639788" lon="5.094668688252568">
        <ele>2.07</ele>
        <time>2019-09-07T13:00:14Z</time>
      </trkpt>
      <trkpt lat="51.658292859792709" lon="5.094574224203825">
        <ele>1.99</ele>
        <time>2019-09-07T13:00:20Z</time>
      </trkpt>
      <trkpt lat="51.658175429329276" lon="5.094164852052927">
        <ele>1.67</ele>
        <time>2019-09-07T13:00:45Z</time>
      </trkpt>
      <trkpt lat="51.657923217862844" lon="5.09344476275146">
        <ele>1.13</ele>
        <time>2019-09-07T13:01:28Z</time>
      </trkpt>
      <trkpt lat="51.657815175130963" lon="5.093114767223597">
        <ele>0.95</ele>
        <time>2019-09-07T13:01:41Z</time>
      </trkpt>
      <trkpt lat="51.657596323639154" lon="5.092612691223621">
        <ele>0.48</ele>
        <time>2019-09-07T13:02:07Z</time>
      </trkpt>
      <trkpt lat="51.657457184046507" lon="5.092121511697769">
        <ele>0.11</ele>
        <time>2019-09-07T13:02:28Z</time>
      </trkpt>
      <trkpt lat="51.657477803528309" lon="5.091991424560547">
        <ele>0.02</ele>
        <time>2019-09-07T13:02:35Z</time>
      </trkpt>
      <trkpt lat="51.657610824331641" lon="5.091757904738188">
        <ele>-0.23</ele>
        <time>2019-09-07T13:02:50Z</time>
      </trkpt>
      <trkpt lat="51.657938808202744" lon="5.091700488701463">
        <ele>-0.45</ele>
        <time>2019-09-07T13:03:02Z</time>
      </trkpt>
      <trkpt lat="51.658037379384041" lon="5.09164466522634">
        <ele>-0.54</ele>
        <time>2019-09-07T13:03:06Z</time>
      </trkpt>
      <trkpt lat="51.658068560063839" lon="5.091631338000298">
        <ele>-0.56</ele>
        <time>2019-09-07T13:03:07Z</time>
      </trkpt>
      <trkpt lat="51.658097142353654" lon="5.091625470668078">
        <ele>-0.58</ele>
        <time>2019-09-07T13:03:08Z</time>
      </trkpt>
      <trkpt lat="51.658132011070848" lon="5.091618178412318">
        <ele>-0.61</ele>
        <time>2019-09-07T13:03:09Z</time>
      </trkpt>
      <trkpt lat="51.658163024112582" lon="5.091607281938195">
        <ele>-0.62</ele>
        <time>2019-09-07T13:03:10Z</time>
      </trkpt>
      <trkpt lat="51.658197306096554" lon="5.091597642749548">
        <ele>-0.65</ele>
        <time>2019-09-07T13:03:11Z</time>
      </trkpt>
      <trkpt lat="51.658512633293867" lon="5.091535616666079">
        <ele>-0.84</ele>
        <time>2019-09-07T13:03:21Z</time>
      </trkpt>
      <trkpt lat="51.658714050427079" lon="5.091537963598967">
        <ele>-1.05</ele>
        <time>2019-09-07T13:03:28Z</time>
      </trkpt>
      <trkpt lat="51.658899793401361" lon="5.091530587524176">
        <ele>-1.13</ele>
        <time>2019-09-07T13:03:32Z</time>
      </trkpt>
      <trkpt lat="51.658962154760957" lon="5.091530168429017">
        <ele>-1.17</ele>
        <time>2019-09-07T13:03:33Z</time>
      </trkpt>
      <trkpt lat="51.659006746485829" lon="5.091528911143541">
        <ele>-1.2</ele>
        <time>2019-09-07T13:03:34Z</time>
      </trkpt>
      <trkpt lat="51.659065000712872" lon="5.091534946113825">
        <ele>-1.21</ele>
        <time>2019-09-07T13:03:35Z</time>
      </trkpt>
      <trkpt lat="51.659114621579647" lon="5.091538885608316">
        <ele>-1.24</ele>
        <time>2019-09-07T13:03:36Z</time>
      </trkpt>
      <trkpt lat="51.659771762788296" lon="5.091491863131523">
        <ele>-1.58</ele>
        <time>2019-09-07T13:03:47Z</time>
      </trkpt>
      <trkpt lat="51.660441644489765" lon="5.091502591967583">
        <ele>-2.6</ele>
        <time>2019-09-07T13:03:58Z</time>
      </trkpt>
      <trkpt lat="51.660563517361879" lon="5.09149270132184">
        <ele>-2.66</ele>
        <time>2019-09-07T13:04:00Z</time>
      </trkpt>
      <trkpt lat="51.661039106547832" lon="5.09149462915957">
        <ele>-2.81</ele>
        <time>2019-09-07T13:04:08Z</time>
      </trkpt>
      <trkpt lat="51.661820886656642" lon="5.091430423781276">
        <ele>-3.11</ele>
        <time>2019-09-07T13:04:21Z</time>
      </trkpt>
      <trkpt lat="51.662278957664967" lon="5.091362781822681">
        <ele>-3.39</ele>
        <time>2019-09-07T13:04:31Z</time>
      </trkpt>
      <trkpt lat="51.662657484412193" lon="5.091318106278777">
        <ele>-4.57</ele>
        <time>2019-09-07T13:04:44Z</time>
      </trkpt>
      <trkpt lat="51.663091583177447" lon="5.091275861486793">
        <ele>-4.92</ele>
        <time>2019-09-07T13:05:02Z</time>
      </trkpt>
      <trkpt lat="51.663199374452233" lon="5.091279884800315">
        <ele>-5.04</ele>
        <time>2019-09-07T13:05:09Z</time>
      </trkpt>
      <trkpt lat="51.663227621465921" lon="5.091268820688129">
        <ele>-5.07</ele>
        <time>2019-09-07T13:05:11Z</time>
      </trkpt>
      <trkpt lat="51.663429960608482" lon="5.091231185942888">
        <ele>-5.27</ele>
        <time>2019-09-07T13:05:24Z</time>
      </trkpt>
      <trkpt lat="51.663447730243206" lon="5.091233449056745">
        <ele>-5.31</ele>
        <time>2019-09-07T13:05:25Z</time>
      </trkpt>
      <trkpt lat="51.663733804598451" lon="5.091220624744892">
        <ele>-5.53</ele>
        <time>2019-09-07T13:05:44Z</time>
      </trkpt>
      <trkpt lat="51.664144350215793" lon="5.091149127110839">
        <ele>-5.79</ele>
        <time>2019-09-07T13:06:09Z</time>
      </trkpt>
      <trkpt lat="51.664501251652837" lon="5.091136135160923">
        <ele>-5.88</ele>
        <time>2019-09-07T13:06:34Z</time>
      </trkpt>
      <trkpt lat="51.664862427860498" lon="5.091118114069104">
        <ele>-5.96</ele>
        <time>2019-09-07T13:06:58Z</time>
      </trkpt>
      <trkpt lat="51.665157806128263" lon="5.09107637219131">
        <ele>-6.01</ele>
        <time>2019-09-07T13:07:21Z</time>
      </trkpt>
      <trkpt lat="51.665490986779332" lon="5.091033540666103">
        <ele>-6.08</ele>
        <time>2019-09-07T13:07:46Z</time>
      </trkpt>
      <trkpt lat="51.665690392255783" lon="5.091292625293136">
        <ele>-6.2</ele>
        <time>2019-09-07T13:08:07Z</time>
      </trkpt>
      <trkpt lat="51.665673796087503" lon="5.091796796768904">
        <ele>-6.34</ele>
        <time>2019-09-07T13:08:33Z</time>
      </trkpt>
      <trkpt lat="51.665631718933582" lon="5.091989748179913">
        <ele>-6.39</ele>
        <time>2019-09-07T13:08:40Z</time>
      </trkpt>
      <trkpt lat="51.665555108338594" lon="5.092405322939158">
        <ele>-6.46</ele>
        <time>2019-09-07T13:08:51Z</time>
      </trkpt>
      <trkpt lat="51.665551252663136" lon="5.09245477616787">
        <ele>-6.45</ele>
        <time>2019-09-07T13:08:52Z</time>
      </trkpt>
      <trkpt lat="51.665500625967979" lon="5.092968922108412">
        <ele>-6.5</ele>
        <time>2019-09-07T13:09:03Z</time>
      </trkpt>
      <trkpt lat="51.665502050891519" lon="5.093411821871996">
        <ele>-6.58</ele>
        <time>2019-09-07T13:09:10Z</time>
      </trkpt>
      <trkpt lat="51.665432816371322" lon="5.094162337481976">
        <ele>-6.63</ele>
        <time>2019-09-07T13:09:21Z</time>
      </trkpt>
      <trkpt lat="51.665207678452134" lon="5.095178559422493">
        <ele>-6.73</ele>
        <time>2019-09-07T13:09:32Z</time>
      </trkpt>
      <trkpt lat="51.664926297962666" lon="5.096150692552328">
        <ele>-6.86</ele>
        <time>2019-09-07T13:09:43Z</time>
      </trkpt>
      <trkpt lat="51.664655227214098" lon="5.097007909789681">
        <ele>-6.98</ele>
        <time>2019-09-07T13:09:54Z</time>
      </trkpt>
      <trkpt lat="51.664237305521965" lon="5.097801759839058">
        <ele>-7.13</ele>
        <time>2019-09-07T13:10:06Z</time>
      </trkpt>
      <trkpt lat="51.663998756557703" lon="5.098511204123497">
        <ele>-7.25</ele>
        <time>2019-09-07T13:10:17Z</time>
      </trkpt>
      <trkpt lat="51.663860538974404" lon="5.099370181560516">
        <ele>-7.38</ele>
        <time>2019-09-07T13:10:28Z</time>
      </trkpt>
      <trkpt lat="51.663819467648864" lon="5.100056491792202">
        <ele>-7.56</ele>
        <time>2019-09-07T13:10:37Z</time>
      </trkpt>
      <trkpt lat="51.663785269483924" lon="5.10074439458549">
        <ele>-7.7</ele>
        <time>2019-09-07T13:10:44Z</time>
      </trkpt>
      <trkpt lat="51.663753585889935" lon="5.100856628268957">
        <ele>-7.7</ele>
        <time>2019-09-07T13:10:45Z</time>
      </trkpt>
      <trkpt lat="51.663720225915313" lon="5.100953690707684">
        <ele>-7.72</ele>
        <time>2019-09-07T13:10:46Z</time>
      </trkpt>
      <trkpt lat="51.663685441017151" lon="5.101043879985809">
        <ele>-7.75</ele>
        <time>2019-09-07T13:10:47Z</time>
      </trkpt>
      <trkpt lat="51.663615787401795" lon="5.101197184994817">
        <ele>-7.78</ele>
        <time>2019-09-07T13:10:49Z</time>
      </trkpt>
      <trkpt lat="51.6633565351367" lon="5.101626925170422">
        <ele>-7.98</ele>
        <time>2019-09-07T13:10:59Z</time>
      </trkpt>
      <trkpt lat="51.663141204044223" lon="5.101735135540366">
        <ele>-8.23</ele>
        <time>2019-09-07T13:11:12Z</time>
      </trkpt>
      <trkpt lat="51.663028048351407" lon="5.101757263764739">
        <ele>-6.18</ele>
        <time>2019-09-07T13:11:21Z</time>
      </trkpt>
      <trkpt lat="51.662618676200509" lon="5.101722981780767">
        <ele>-6.75</ele>
        <time>2019-09-07T13:11:46Z</time>
      </trkpt>
      <trkpt lat="51.662256829440594" lon="5.101723484694958">
        <ele>-7.16</ele>
        <time>2019-09-07T13:12:09Z</time>
      </trkpt>
      <trkpt lat="51.662055160850286" lon="5.10169037617743">
        <ele>-7.45</ele>
        <time>2019-09-07T13:12:25Z</time>
      </trkpt>
      <trkpt lat="51.661926666274667" lon="5.101759443059564">
        <ele>-7.66</ele>
        <time>2019-09-07T13:12:36Z</time>
      </trkpt>
      <trkpt lat="51.661677556112409" lon="5.101795820519328">
        <ele>-7.98</ele>
        <time>2019-09-07T13:12:52Z</time>
      </trkpt>
      <trkpt lat="51.661374466493726" lon="5.101842507719994">
        <ele>-8.289999999999999</ele>
        <time>2019-09-07T13:13:10Z</time>
      </trkpt>
      <trkpt lat="51.661005830392241" lon="5.102010648697615">
        <ele>-8.699999999999999</ele>
        <time>2019-09-07T13:13:31Z</time>
      </trkpt>
      <trkpt lat="51.660991245880723" lon="5.102012660354376">
        <ele>-8.720000000000001</ele>
        <time>2019-09-07T13:13:32Z</time>
      </trkpt>
      <trkpt lat="51.660746913403273" lon="5.10202749632299">
        <ele>-8.949999999999999</ele>
        <time>2019-09-07T13:13:41Z</time>
      </trkpt>
      <trkpt lat="51.659971084445715" lon="5.102099077776074">
        <ele>-9.560000000000001</ele>
        <time>2019-09-07T13:14:00Z</time>
      </trkpt>
      <trkpt lat="51.65945241227746" lon="5.102007715031505">
        <ele>-10.08</ele>
        <time>2019-09-07T13:14:14Z</time>
      </trkpt>
      <trkpt lat="51.659060725942254" lon="5.102089354768395">
        <ele>-10.869999999999999</ele>
        <time>2019-09-07T13:14:33Z</time>
      </trkpt>
      <trkpt lat="51.658520260825753" lon="5.102108884602785">
        <ele>-11.66</ele>
        <time>2019-09-07T13:14:57Z</time>
      </trkpt>
      <trkpt lat="51.657692799344659" lon="5.102272247895598">
        <ele>-12.880000000000001</ele>
        <time>2019-09-07T13:15:51Z</time>
      </trkpt>
      <trkpt lat="51.657484006136656" lon="5.102387834340334">
        <ele>-13.130000000000001</ele>
        <time>2019-09-07T13:16:06Z</time>
      </trkpt>
      <trkpt lat="51.657373700290918" lon="5.102497385814786">
        <ele>-13.24</ele>
        <time>2019-09-07T13:16:14Z</time>
      </trkpt>
      <trkpt lat="51.657337239012122" lon="5.102518843486905">
        <ele>-13.25</ele>
        <time>2019-09-07T13:16:15Z</time>
      </trkpt>
      <trkpt lat="51.657206229865551" lon="5.10260702110827">
        <ele>-13.5</ele>
        <time>2019-09-07T13:16:31Z</time>
      </trkpt>
      <trkpt lat="51.657141353935003" lon="5.102936765179038">
        <ele>-13.69</ele>
        <time>2019-09-07T13:16:45Z</time>
      </trkpt>
      <trkpt lat="51.657117633149028" lon="5.103253349661827">
        <ele>-13.869999999999999</ele>
        <time>2019-09-07T13:16:58Z</time>
      </trkpt>
      <trkpt lat="51.657209247350693" lon="5.1045136526227">
        <ele>-14.449999999999999</ele>
        <time>2019-09-07T13:17:48Z</time>
      </trkpt>
      <trkpt lat="51.65725409053266" lon="5.104814479127526">
        <ele>-14.57</ele>
        <time>2019-09-07T13:18:01Z</time>
      </trkpt>
      <trkpt lat="51.657304298132658" lon="5.105193173512816">
        <ele>-14.69</ele>
        <time>2019-09-07T13:18:16Z</time>
      </trkpt>
      <trkpt lat="51.657384932041168" lon="5.105454353615642">
        <ele>-14.75</ele>
        <time>2019-09-07T13:18:28Z</time>
      </trkpt>
      <trkpt lat="51.657433547079563" lon="5.105651831254363">
        <ele>-14.800000000000001</ele>
        <time>2019-09-07T13:18:34Z</time>
      </trkpt>
      <trkpt lat="51.657461374998093" lon="5.105711510404944">
        <ele>-14.800000000000001</ele>
        <time>2019-09-07T13:18:36Z</time>
      </trkpt>
      <trkpt lat="51.657463135197759" lon="5.106651708483696">
        <ele>-14.9</ele>
        <time>2019-09-07T13:18:53Z</time>
      </trkpt>
      <trkpt lat="51.657421225681901" lon="5.107064684852958">
        <ele>-14.94</ele>
        <time>2019-09-07T13:18:57Z</time>
      </trkpt>
      <trkpt lat="51.657300023362041" lon="5.107108019292355">
        <ele>-14.949999999999999</ele>
        <time>2019-09-07T13:18:58Z</time>
      </trkpt>
      <trkpt lat="51.657129283994436" lon="5.107021350413561">
        <ele>-14.18</ele>
        <time>2019-09-07T13:19:07Z</time>
      </trkpt>
      <trkpt lat="51.656886208802462" lon="5.106930574402213">
        <ele>-14.31</ele>
        <time>2019-09-07T13:19:14Z</time>
      </trkpt>
      <trkpt lat="51.656864415854216" lon="5.10691967792809">
        <ele>-14.31</ele>
        <time>2019-09-07T13:19:15Z</time>
      </trkpt>
      <trkpt lat="51.656644307076931" lon="5.106678446754813">
        <ele>-14.470000000000001</ele>
        <time>2019-09-07T13:19:26Z</time>
      </trkpt>
      <trkpt lat="51.656375415623188" lon="5.106238061562181">
        <ele>-14.640000000000001</ele>
        <time>2019-09-07T13:19:36Z</time>
      </trkpt>
      <trkpt lat="51.656217332929373" lon="5.105930361896753">
        <ele>-14.75</ele>
        <time>2019-09-07T13:19:45Z</time>
      </trkpt>
      <trkpt lat="51.656165029853582" lon="5.105739003047347">
        <ele>-14.789999999999999</ele>
        <time>2019-09-07T13:19:50Z</time>
      </trkpt>
      <trkpt lat="51.656156983226538" lon="5.105701200664043">
        <ele>-14.800000000000001</ele>
        <time>2019-09-07T13:19:51Z</time>
      </trkpt>
      <trkpt lat="51.656145667657256" lon="5.105638671666384">
        <ele>-14.800000000000001</ele>
        <time>2019-09-07T13:19:52Z</time>
      </trkpt>
      <trkpt lat="51.656139297410846" lon="5.105594247579575">
        <ele>-14.82</ele>
        <time>2019-09-07T13:19:53Z</time>
      </trkpt>
      <trkpt lat="51.65601541288197" lon="5.105223348364234">
        <ele>-15.029999999999999</ele>
        <time>2019-09-07T13:20:06Z</time>
      </trkpt>
      <trkpt lat="51.655975012108684" lon="5.104941800236702">
        <ele>-15.08</ele>
        <time>2019-09-07T13:20:09Z</time>
      </trkpt>
      <trkpt lat="51.656055813655257" lon="5.104089695960283">
        <ele>-15.4</ele>
        <time>2019-09-07T13:20:29Z</time>
      </trkpt>
      <trkpt lat="51.656181626021862" lon="5.103620309382677">
        <ele>-15.42</ele>
        <time>2019-09-07T13:20:30Z</time>
      </trkpt>
      <trkpt lat="51.656249351799488" lon="5.103021925315261">
        <ele>-15.74</ele>
        <time>2019-09-07T13:20:45Z</time>
      </trkpt>
      <trkpt lat="51.656383713707328" lon="5.102587742730975">
        <ele>-16.100000000000001</ele>
        <time>2019-09-07T13:21:01Z</time>
      </trkpt>
      <trkpt lat="51.656213058158755" lon="5.102515574544668">
        <ele>-19.640000000000001</ele>
        <time>2019-09-07T13:23:59Z</time>
      </trkpt>
      <trkpt lat="51.655930085107684" lon="5.102558908984065">
        <ele>-19.629999999999999</ele>
        <time>2019-09-07T13:24:14Z</time>
      </trkpt>
      <trkpt lat="51.65573688223958" lon="5.10244332253933">
        <ele>-17.960000000000001</ele>
        <time>2019-09-07T13:24:28Z</time>
      </trkpt>
      <trkpt lat="51.655404539778829" lon="5.102493865415454">
        <ele>-17</ele>
        <time>2019-09-07T13:24:56Z</time>
      </trkpt>
      <trkpt lat="51.65517739020288" lon="5.102521274238825">
        <ele>-17.109999999999999</ele>
        <time>2019-09-07T13:25:13Z</time>
      </trkpt>
      <trkpt lat="51.654937835410237" lon="5.102398730814457">
        <ele>-17.050000000000001</ele>
        <time>2019-09-07T13:25:28Z</time>
      </trkpt>
      <trkpt lat="51.654691491276026" lon="5.102433850988746">
        <ele>-17.079999999999998</ele>
        <time>2019-09-07T13:25:43Z</time>
      </trkpt>
      <trkpt lat="51.654516058042645" lon="5.10278195142746">
        <ele>-17.030000000000001</ele>
        <time>2019-09-07T13:26:00Z</time>
      </trkpt>
      <trkpt lat="51.654502898454666" lon="5.102835260331631">
        <ele>-19.399999999999999</ele>
        <time>2019-09-07T13:26:02Z</time>
      </trkpt>
      <trkpt lat="51.654505161568522" lon="5.103305233642459">
        <ele>-19.23</ele>
        <time>2019-09-07T13:26:21Z</time>
      </trkpt>
      <trkpt lat="51.654453948140144" lon="5.103730279952288">
        <ele>-19.109999999999999</ele>
        <time>2019-09-07T13:26:40Z</time>
      </trkpt>
      <trkpt lat="51.654212884604931" lon="5.103907808661461">
        <ele>-18.949999999999999</ele>
        <time>2019-09-07T13:26:57Z</time>
      </trkpt>
      <trkpt lat="51.653971904888749" lon="5.104016019031405">
        <ele>-18.77</ele>
        <time>2019-09-07T13:27:13Z</time>
      </trkpt>
      <trkpt lat="51.653711814433336" lon="5.104239480569959">
        <ele>-18.550000000000001</ele>
        <time>2019-09-07T13:27:32Z</time>
      </trkpt>
      <trkpt lat="51.653498327359557" lon="5.104387002065778">
        <ele>-18.41</ele>
        <time>2019-09-07T13:27:48Z</time>
      </trkpt>
      <trkpt lat="51.653183000162244" lon="5.10448825545609">
        <ele>-18.16</ele>
        <time>2019-09-07T13:28:09Z</time>
      </trkpt>
      <trkpt lat="51.652940427884459" lon="5.104646338149905">
        <ele>-17.940000000000001</ele>
        <time>2019-09-07T13:28:27Z</time>
      </trkpt>
      <trkpt lat="51.652848646044731" lon="5.105029726400971">
        <ele>-17.739999999999998</ele>
        <time>2019-09-07T13:28:45Z</time>
      </trkpt>
      <trkpt lat="51.652794247493148" lon="5.105479499325156">
        <ele>-17.52</ele>
        <time>2019-09-07T13:29:05Z</time>
      </trkpt>
      <trkpt lat="51.652701124548912" lon="5.105789378285408">
        <ele>-17.359999999999999</ele>
        <time>2019-09-07T13:29:21Z</time>
      </trkpt>
      <trkpt lat="51.652479507029057" lon="5.106114931404591">
        <ele>-17.149999999999999</ele>
        <time>2019-09-07T13:29:40Z</time>
      </trkpt>
      <trkpt lat="51.652172226458788" lon="5.106405029073358">
        <ele>-16.899999999999999</ele>
        <time>2019-09-07T13:30:04Z</time>
      </trkpt>
      <trkpt lat="51.651886906474829" lon="5.10662354528904">
        <ele>-16.719999999999999</ele>
        <time>2019-09-07T13:30:26Z</time>
      </trkpt>
      <trkpt lat="51.651668725535274" lon="5.106836361810565">
        <ele>-16.559999999999999</ele>
        <time>2019-09-07T13:30:42Z</time>
      </trkpt>
      <trkpt lat="51.651388350874186" lon="5.107092848047614">
        <ele>-16.379999999999999</ele>
        <time>2019-09-07T13:31:04Z</time>
      </trkpt>
      <trkpt lat="51.651165392249823" lon="5.1073042396456">
        <ele>-16.23</ele>
        <time>2019-09-07T13:31:22Z</time>
      </trkpt>
      <trkpt lat="51.650870935991406" lon="5.107553265988827">
        <ele>-16.059999999999999</ele>
        <time>2019-09-07T13:31:44Z</time>
      </trkpt>
      <trkpt lat="51.650623753666878" lon="5.108009744435549">
        <ele>-15.84</ele>
        <time>2019-09-07T13:32:08Z</time>
      </trkpt>
      <trkpt lat="51.650394173339009" lon="5.108383912593126">
        <ele>-15.66</ele>
        <time>2019-09-07T13:32:30Z</time>
      </trkpt>
      <trkpt lat="51.650176243856549" lon="5.108784399926662">
        <ele>-15.48</ele>
        <time>2019-09-07T13:32:52Z</time>
      </trkpt>
      <trkpt lat="51.649929899722338" lon="5.10907843708992">
        <ele>-15.31</ele>
        <time>2019-09-07T13:33:14Z</time>
      </trkpt>
      <trkpt lat="51.649910537526011" lon="5.109346155077219">
        <ele>-12.85</ele>
        <time>2019-09-07T13:33:27Z</time>
      </trkpt>
      <trkpt lat="51.649909699335694" lon="5.109700374305248">
        <ele>-12.77</ele>
        <time>2019-09-07T13:33:42Z</time>
      </trkpt>
      <trkpt lat="51.64989335462451" lon="5.109982676804066">
        <ele>-12.66</ele>
        <time>2019-09-07T13:33:57Z</time>
      </trkpt>
      <trkpt lat="51.649822946637869" lon="5.110282748937607">
        <ele>-12.550000000000001</ele>
        <time>2019-09-07T13:34:11Z</time>
      </trkpt>
      <trkpt lat="51.649619936943054" lon="5.110465725883842">
        <ele>-12.4</ele>
        <time>2019-09-07T13:34:27Z</time>
      </trkpt>
      <trkpt lat="51.649440564215183" lon="5.110461283475161">
        <ele>-12.35</ele>
        <time>2019-09-07T13:34:34Z</time>
      </trkpt>
      <trkpt lat="51.649082154035568" lon="5.110463378950954">
        <ele>-12.31</ele>
        <time>2019-09-07T13:34:41Z</time>
      </trkpt>
      <trkpt lat="51.648867074400187" lon="5.110538229346275">
        <ele>-12.300000000000001</ele>
        <time>2019-09-07T13:34:45Z</time>
      </trkpt>
      <trkpt lat="51.648468766361475" lon="5.110926227644086">
        <ele>-11.960000000000001</ele>
        <time>2019-09-07T13:36:11Z</time>
      </trkpt>
      <trkpt lat="51.648260727524757" lon="5.111292684450746">
        <ele>-10.34</ele>
        <time>2019-09-07T13:36:33Z</time>
      </trkpt>
      <trkpt lat="51.647928887978196" lon="5.111646819859743">
        <ele>-6.49</ele>
        <time>2019-09-07T13:36:39Z</time>
      </trkpt>
      <trkpt lat="51.647621942684054" lon="5.111814122647047">
        <ele>0.7</ele>
        <time>2019-09-07T13:37:06Z</time>
      </trkpt>
      <trkpt lat="51.647631665691733" lon="5.111808674409986">
        <ele>0.81</ele>
        <time>2019-09-07T13:37:25Z</time>
      </trkpt>
      <trkpt lat="51.647558324038982" lon="5.11187732219696">
        <ele>-1.47</ele>
        <time>2019-09-07T13:37:49Z</time>
      </trkpt>
      <trkpt lat="51.647546421736479" lon="5.111891571432352">
        <ele>-1.46</ele>
        <time>2019-09-07T13:37:50Z</time>
      </trkpt>
      <trkpt lat="51.647443575784564" lon="5.112016461789608">
        <ele>-4.48</ele>
        <time>2019-09-07T13:38:12Z</time>
      </trkpt>
      <trkpt lat="51.647331174463034" lon="5.112125594168901">
        <ele>-5.9</ele>
        <time>2019-09-07T13:38:57Z</time>
      </trkpt>
      <trkpt lat="51.647344250231981" lon="5.112119978293777">
        <ele>-5.72</ele>
        <time>2019-09-07T13:39:24Z</time>
      </trkpt>
      <trkpt lat="51.647173846140504" lon="5.11208494193852">
        <ele>-5.61</ele>
        <time>2019-09-07T13:39:40Z</time>
      </trkpt>
      <trkpt lat="51.64693521335721" lon="5.112014450132847">
        <ele>-6.41</ele>
        <time>2019-09-07T13:39:57Z</time>
      </trkpt>
      <trkpt lat="51.646637907251716" lon="5.112034818157554">
        <ele>-6.31</ele>
        <time>2019-09-07T13:40:14Z</time>
      </trkpt>
      <trkpt lat="51.64643095806241" lon="5.112312426790595">
        <ele>-6.2</ele>
        <time>2019-09-07T13:40:32Z</time>
      </trkpt>
      <trkpt lat="51.646394664421678" lon="5.112794218584895">
        <ele>-6.08</ele>
        <time>2019-09-07T13:40:53Z</time>
      </trkpt>
      <trkpt lat="51.646397095173597" lon="5.113285398110747">
        <ele>-5.96</ele>
        <time>2019-09-07T13:41:14Z</time>
      </trkpt>
      <trkpt lat="51.646402040496469" lon="5.113439289852977">
        <ele>-5.9</ele>
        <time>2019-09-07T13:41:27Z</time>
      </trkpt>
      <trkpt lat="51.646377397701144" lon="5.113678006455302">
        <ele>-9.25</ele>
        <time>2019-09-07T13:41:37Z</time>
      </trkpt>
      <trkpt lat="51.646279161795974" lon="5.114059299230576">
        <ele>-10.369999999999999</ele>
        <time>2019-09-07T13:41:55Z</time>
      </trkpt>
      <trkpt lat="51.646271618083119" lon="5.114211430773139">
        <ele>-8.15</ele>
        <time>2019-09-07T13:42:02Z</time>
      </trkpt>
      <trkpt lat="51.64618662558496" lon="5.114601440727711">
        <ele>-8.109999999999999</ele>
        <time>2019-09-07T13:42:20Z</time>
      </trkpt>
      <trkpt lat="51.646167766302824" lon="5.114709064364433">
        <ele>-10.470000000000001</ele>
        <time>2019-09-07T13:42:25Z</time>
      </trkpt>
      <trkpt lat="51.646158546209335" lon="5.114752314984798">
        <ele>-12.99</ele>
        <time>2019-09-07T13:42:27Z</time>
      </trkpt>
      <trkpt lat="51.646151002496481" lon="5.114798918366432">
        <ele>-10.109999999999999</ele>
        <time>2019-09-07T13:42:29Z</time>
      </trkpt>
      <trkpt lat="51.646004319190979" lon="5.115212649106979">
        <ele>-9.23</ele>
        <time>2019-09-07T13:42:49Z</time>
      </trkpt>
      <trkpt lat="51.64576007053256" lon="5.115348184481263">
        <ele>-9.19</ele>
        <time>2019-09-07T13:43:05Z</time>
      </trkpt>
      <trkpt lat="51.645519426092505" lon="5.115557312965393">
        <ele>-9.15</ele>
        <time>2019-09-07T13:43:21Z</time>
      </trkpt>
      <trkpt lat="51.645484892651439" lon="5.115612046793103">
        <ele>-16.149999999999999</ele>
        <time>2019-09-07T13:43:23Z</time>
      </trkpt>
      <trkpt lat="51.645463518798351" lon="5.115645322948694">
        <ele>-7.86</ele>
        <time>2019-09-07T13:43:24Z</time>
      </trkpt>
      <trkpt lat="51.645441306754947" lon="5.115677509456873">
        <ele>-7.86</ele>
        <time>2019-09-07T13:43:25Z</time>
      </trkpt>
      <trkpt lat="51.645349273458123" lon="5.115871969610453">
        <ele>-10.57</ele>
        <time>2019-09-07T13:43:31Z</time>
      </trkpt>
      <trkpt lat="51.645161518827081" lon="5.116146057844162">
        <ele>-10.56</ele>
        <time>2019-09-07T13:43:48Z</time>
      </trkpt>
      <trkpt lat="51.644826326519251" lon="5.116225266829133">
        <ele>-10.44</ele>
        <time>2019-09-07T13:44:10Z</time>
      </trkpt>
      <trkpt lat="51.644562883302569" lon="5.116286454722285">
        <ele>-10.390000000000001</ele>
        <time>2019-09-07T13:44:27Z</time>
      </trkpt>
      <trkpt lat="51.644289130344987" lon="5.116342613473535">
        <ele>-10.33</ele>
        <time>2019-09-07T13:44:45Z</time>
      </trkpt>
      <trkpt lat="51.64409575983882" lon="5.116327526047826">
        <ele>-7.92</ele>
        <time>2019-09-07T13:44:57Z</time>
      </trkpt>
      <trkpt lat="51.643854193389416" lon="5.116367256268859">
        <ele>-6.79</ele>
        <time>2019-09-07T13:46:23Z</time>
      </trkpt>
      <trkpt lat="51.643793676048517" lon="5.116364154964685">
        <ele>-6.7</ele>
        <time>2019-09-07T13:46:45Z</time>
      </trkpt>
      <trkpt lat="51.643657218664885" lon="5.116551071405411">
        <ele>-7.11</ele>
        <time>2019-09-07T13:50:10Z</time>
      </trkpt>
      <trkpt lat="51.643573231995106" lon="5.116880228742957">
        <ele>-7</ele>
        <time>2019-09-07T13:50:26Z</time>
      </trkpt>
      <trkpt lat="51.643516235053539" lon="5.117275100201368">
        <ele>-6.94</ele>
        <time>2019-09-07T13:50:43Z</time>
      </trkpt>
      <trkpt lat="51.643491676077247" lon="5.117536447942257">
        <ele>-8.210000000000001</ele>
        <time>2019-09-07T13:50:55Z</time>
      </trkpt>
      <trkpt lat="51.643479187041521" lon="5.117952693253756">
        <ele>-8.109999999999999</ele>
        <time>2019-09-07T13:51:11Z</time>
      </trkpt>
      <trkpt lat="51.64348840713501" lon="5.118429455906153">
        <ele>-7.95</ele>
        <time>2019-09-07T13:51:31Z</time>
      </trkpt>
      <trkpt lat="51.643537189811468" lon="5.1188725233078">
        <ele>-7.8</ele>
        <time>2019-09-07T13:51:51Z</time>
      </trkpt>
      <trkpt lat="51.643549595028162" lon="5.119315506890416">
        <ele>-7.65</ele>
        <time>2019-09-07T13:52:10Z</time>
      </trkpt>
      <trkpt lat="51.643463596701622" lon="5.11962840333581">
        <ele>-7.55</ele>
        <time>2019-09-07T13:52:24Z</time>
      </trkpt>
      <trkpt lat="51.643296713009477" lon="5.11988690122962">
        <ele>-7.43</ele>
        <time>2019-09-07T13:52:40Z</time>
      </trkpt>
      <trkpt lat="51.643075766041875" lon="5.119954710826278">
        <ele>-7.38</ele>
        <time>2019-09-07T13:52:55Z</time>
      </trkpt>
      <trkpt lat="51.642790362238884" lon="5.120054120197892">
        <ele>-7.27</ele>
        <time>2019-09-07T13:53:15Z</time>
      </trkpt>
      <trkpt lat="51.642554495483637" lon="5.120201306417584">
        <ele>-7.09</ele>
        <time>2019-09-07T13:53:34Z</time>
      </trkpt>
      <trkpt lat="51.642503449693322" lon="5.120621994137764">
        <ele>-7</ele>
        <time>2019-09-07T13:53:52Z</time>
      </trkpt>
      <trkpt lat="51.642528343945742" lon="5.121161872521043">
        <ele>-6.86</ele>
        <time>2019-09-07T13:54:13Z</time>
      </trkpt>
      <trkpt lat="51.642519375309348" lon="5.121573423966765">
        <ele>-6.76</ele>
        <time>2019-09-07T13:54:31Z</time>
      </trkpt>
      <trkpt lat="51.642512502148747" lon="5.12199779972434">
        <ele>-6.62</ele>
        <time>2019-09-07T13:54:48Z</time>
      </trkpt>
      <trkpt lat="51.642622724175453" lon="5.12237498536706">
        <ele>-6.51</ele>
        <time>2019-09-07T13:55:03Z</time>
      </trkpt>
      <trkpt lat="51.642636135220528" lon="5.122858788818121">
        <ele>-6.43</ele>
        <time>2019-09-07T13:55:22Z</time>
      </trkpt>
      <trkpt lat="51.642588190734386" lon="5.123307220637798">
        <ele>-6.32</ele>
        <time>2019-09-07T13:55:42Z</time>
      </trkpt>
      <trkpt lat="51.642589280381799" lon="5.123691279441118">
        <ele>-6.24</ele>
        <time>2019-09-07T13:55:59Z</time>
      </trkpt>
      <trkpt lat="51.642598332837224" lon="5.123810889199376">
        <ele>-6.22</ele>
        <time>2019-09-07T13:56:06Z</time>
      </trkpt>
      <trkpt lat="51.642592968419194" lon="5.123914992436767">
        <ele>-6.21</ele>
        <time>2019-09-07T13:56:11Z</time>
      </trkpt>
      <trkpt lat="51.642493307590485" lon="5.124405669048429">
        <ele>-3.78</ele>
        <time>2019-09-07T13:56:32Z</time>
      </trkpt>
      <trkpt lat="51.642378894612193" lon="5.124935237690806">
        <ele>-3.77</ele>
        <time>2019-09-07T13:56:55Z</time>
      </trkpt>
      <trkpt lat="51.642219219356775" lon="5.125036910176277">
        <ele>-3.75</ele>
        <time>2019-09-07T13:57:09Z</time>
      </trkpt>
      <trkpt lat="51.641953848302364" lon="5.124868769198656">
        <ele>-3.69</ele>
        <time>2019-09-07T13:57:28Z</time>
      </trkpt>
      <trkpt lat="51.641725106164813" lon="5.124862315133214">
        <ele>-3.6</ele>
        <time>2019-09-07T13:57:44Z</time>
      </trkpt>
      <trkpt lat="51.641627959907055" lon="5.125148976221681">
        <ele>-3.55</ele>
        <time>2019-09-07T13:57:59Z</time>
      </trkpt>
      <trkpt lat="51.641528801992536" lon="5.125433122739196">
        <ele>-3.48</ele>
        <time>2019-09-07T13:58:14Z</time>
      </trkpt>
      <trkpt lat="51.641487814486027" lon="5.125475954264402">
        <ele>-3.46</ele>
        <time>2019-09-07T13:58:19Z</time>
      </trkpt>
      <trkpt lat="51.641401229426265" lon="5.125774266198278">
        <ele>-3.42</ele>
        <time>2019-09-07T13:58:34Z</time>
      </trkpt>
      <trkpt lat="51.641213223338127" lon="5.12612521648407">
        <ele>-3.38</ele>
        <time>2019-09-07T13:58:52Z</time>
      </trkpt>
      <trkpt lat="51.640992108732462" lon="5.126105770468712">
        <ele>-3.4</ele>
        <time>2019-09-07T13:59:08Z</time>
      </trkpt>
      <trkpt lat="51.640788344666362" lon="5.126017509028316">
        <ele>-3.4</ele>
        <time>2019-09-07T13:59:23Z</time>
      </trkpt>
      <trkpt lat="51.640671417117119" lon="5.125953387469053">
        <ele>-3.37</ele>
        <time>2019-09-07T13:59:33Z</time>
      </trkpt>
      <trkpt lat="51.64061282761395" lon="5.125889433547854">
        <ele>-3.38</ele>
        <time>2019-09-07T13:59:38Z</time>
      </trkpt>
      <trkpt lat="51.6405273322016" lon="5.125824473798275">
        <ele>-3.39</ele>
        <time>2019-09-07T13:59:43Z</time>
      </trkpt>
      <trkpt lat="51.640492798760533" lon="5.125803267583251">
        <ele>-3.39</ele>
        <time>2019-09-07T13:59:45Z</time>
      </trkpt>
      <trkpt lat="51.640303283929825" lon="5.125752137973905">
        <ele>-2.41</ele>
        <time>2019-09-07T13:59:59Z</time>
      </trkpt>
      <trkpt lat="51.640169005841017" lon="5.12575046159327">
        <ele>-2.49</ele>
        <time>2019-09-07T14:00:10Z</time>
      </trkpt>
      <trkpt lat="51.640064902603626" lon="5.125727327540517">
        <ele>-2.55</ele>
        <time>2019-09-07T14:00:18Z</time>
      </trkpt>
      <trkpt lat="51.639941772446036" lon="5.125736882910132">
        <ele>-4.82</ele>
        <time>2019-09-07T14:00:26Z</time>
      </trkpt>
      <trkpt lat="51.639880668371916" lon="5.125757586210966">
        <ele>-4.84</ele>
        <time>2019-09-07T14:00:31Z</time>
      </trkpt>
      <trkpt lat="51.639852337539196" lon="5.125767979770899">
        <ele>-4.84</ele>
        <time>2019-09-07T14:00:33Z</time>
      </trkpt>
      <trkpt lat="51.639835573732853" lon="5.125770745798945">
        <ele>-4.86</ele>
        <time>2019-09-07T14:00:34Z</time>
      </trkpt>
      <trkpt lat="51.639551175758243" lon="5.125797064974904">
        <ele>-4.99</ele>
        <time>2019-09-07T14:00:50Z</time>
      </trkpt>
      <trkpt lat="51.639500549063087" lon="5.125799579545856">
        <ele>-5.01</ele>
        <time>2019-09-07T14:00:53Z</time>
      </trkpt>
      <trkpt lat="51.639408599585295" lon="5.125760855153203">
        <ele>-5.08</ele>
        <time>2019-09-07T14:01:00Z</time>
      </trkpt>
      <trkpt lat="51.639392841607332" lon="5.125755742192268">
        <ele>-5.08</ele>
        <time>2019-09-07T14:01:01Z</time>
      </trkpt>
      <trkpt lat="51.639379430562258" lon="5.125744342803955">
        <ele>-5.08</ele>
        <time>2019-09-07T14:01:02Z</time>
      </trkpt>
      <trkpt lat="51.639367612078786" lon="5.125729842111468">
        <ele>-5.08</ele>
        <time>2019-09-07T14:01:03Z</time>
      </trkpt>
      <trkpt lat="51.639352776110172" lon="5.125714670866728">
        <ele>-5.09</ele>
        <time>2019-09-07T14:01:04Z</time>
      </trkpt>
      <trkpt lat="51.639336347579956" lon="5.125712240114808">
        <ele>-5.1</ele>
        <time>2019-09-07T14:01:05Z</time>
      </trkpt>
      <trkpt lat="51.63932092487812" lon="5.125711066648364">
        <ele>-5.1</ele>
        <time>2019-09-07T14:01:06Z</time>
      </trkpt>
      <trkpt lat="51.639305334538221" lon="5.125712240114808">
        <ele>-5.1</ele>
        <time>2019-09-07T14:01:07Z</time>
      </trkpt>
      <trkpt lat="51.639217576012015" lon="5.125769572332501">
        <ele>-5.15</ele>
        <time>2019-09-07T14:01:13Z</time>
      </trkpt>
      <trkpt lat="51.639102241024375" lon="5.1261340174824">
        <ele>-5.22</ele>
        <time>2019-09-07T14:01:30Z</time>
      </trkpt>
      <trkpt lat="51.639068126678467" lon="5.126252872869372">
        <ele>-5.24</ele>
        <time>2019-09-07T14:01:36Z</time>
      </trkpt>
      <trkpt lat="51.639060163870454" lon="5.126269804313779">
        <ele>-5.26</ele>
        <time>2019-09-07T14:01:37Z</time>
      </trkpt>
      <trkpt lat="51.639029653742909" lon="5.126333674415946">
        <ele>-2.88</ele>
        <time>2019-09-07T14:01:41Z</time>
      </trkpt>
      <trkpt lat="51.638927143067122" lon="5.126527044922113">
        <ele>-2.11</ele>
        <time>2019-09-07T14:01:51Z</time>
      </trkpt>
      <trkpt lat="51.638913061469793" lon="5.12660114094615">
        <ele>-1.28</ele>
        <time>2019-09-07T14:01:54Z</time>
      </trkpt>
      <trkpt lat="51.63891289383173" lon="5.126629890874028">
        <ele>-1.3</ele>
        <time>2019-09-07T14:01:55Z</time>
      </trkpt>
      <trkpt lat="51.638914318755269" lon="5.126653192564845">
        <ele>-1.29</ele>
        <time>2019-09-07T14:01:56Z</time>
      </trkpt>
      <trkpt lat="51.638915492221713" lon="5.126674985513091">
        <ele>-1.29</ele>
        <time>2019-09-07T14:01:57Z</time>
      </trkpt>
      <trkpt lat="51.638945415616035" lon="5.127563383430243">
        <ele>-0.72</ele>
        <time>2019-09-07T14:02:41Z</time>
      </trkpt>
      <trkpt lat="51.6388816293329" lon="5.128184566274285">
        <ele>-3.3</ele>
        <time>2019-09-07T14:03:10Z</time>
      </trkpt>
      <trkpt lat="51.638910127803683" lon="5.128407189622521">
        <ele>-3.34</ele>
        <time>2019-09-07T14:03:19Z</time>
      </trkpt>
      <trkpt lat="51.638931920751929" lon="5.128470556810498">
        <ele>-3.4</ele>
        <time>2019-09-07T14:03:22Z</time>
      </trkpt>
      <trkpt lat="51.638938207179308" lon="5.12849017046392">
        <ele>-4.33</ele>
        <time>2019-09-07T14:03:23Z</time>
      </trkpt>
      <trkpt lat="51.638970226049423" lon="5.128670632839203">
        <ele>-4.29</ele>
        <time>2019-09-07T14:03:32Z</time>
      </trkpt>
      <trkpt lat="51.638971231877804" lon="5.128696616739035">
        <ele>-4.29</ele>
        <time>2019-09-07T14:03:33Z</time>
      </trkpt>
      <trkpt lat="51.638972070068121" lon="5.128721510991454">
        <ele>-4.29</ele>
        <time>2019-09-07T14:03:34Z</time>
      </trkpt>
      <trkpt lat="51.63897349499166" lon="5.128746656700969">
        <ele>-4.3</ele>
        <time>2019-09-07T14:03:35Z</time>
      </trkpt>
      <trkpt lat="51.638971148058772" lon="5.128776328638196">
        <ele>-4.3</ele>
        <time>2019-09-07T14:03:36Z</time>
      </trkpt>
      <trkpt lat="51.638965867459774" lon="5.128886802121997">
        <ele>-4.35</ele>
        <time>2019-09-07T14:03:40Z</time>
      </trkpt>
      <trkpt lat="51.638999059796333" lon="5.128962239250541">
        <ele>-4.41</ele>
        <time>2019-09-07T14:03:44Z</time>
      </trkpt>
      <trkpt lat="51.639146581292152" lon="5.129120657220483">
        <ele>-4.48</ele>
        <time>2019-09-07T14:03:56Z</time>
      </trkpt>
      <trkpt lat="51.639224449172616" lon="5.129320649430156">
        <ele>-4.54</ele>
        <time>2019-09-07T14:04:08Z</time>
      </trkpt>
      <trkpt lat="51.639230903238058" lon="5.12933942489326">
        <ele>-4.55</ele>
        <time>2019-09-07T14:04:09Z</time>
      </trkpt>
      <trkpt lat="51.639299551025033" lon="5.129547379910946">
        <ele>-4.57</ele>
        <time>2019-09-07T14:04:20Z</time>
      </trkpt>
      <trkpt lat="51.639381442219019" lon="5.129811661317945">
        <ele>-4.74</ele>
        <time>2019-09-07T14:04:35Z</time>
      </trkpt>
      <trkpt lat="51.639463249593973" lon="5.130042918026447">
        <ele>-4.85</ele>
        <time>2019-09-07T14:04:51Z</time>
      </trkpt>
      <trkpt lat="51.639467189088464" lon="5.130056580528617">
        <ele>-10.23</ele>
        <time>2019-09-07T14:04:52Z</time>
      </trkpt>
      <trkpt lat="51.639475570991635" lon="5.13007921166718">
        <ele>-1.74</ele>
        <time>2019-09-07T14:04:53Z</time>
      </trkpt>
      <trkpt lat="51.63949141278863" lon="5.130179040133953">
        <ele>-3.77</ele>
        <time>2019-09-07T14:04:57Z</time>
      </trkpt>
      <trkpt lat="51.639556121081114" lon="5.130388839170337">
        <ele>-3.94</ele>
        <time>2019-09-07T14:05:09Z</time>
      </trkpt>
      <trkpt lat="51.639596354216337" lon="5.130723444744945">
        <ele>-5.02</ele>
        <time>2019-09-07T14:05:25Z</time>
      </trkpt>
      <trkpt lat="51.639650417491794" lon="5.131255695596337">
        <ele>-5.32</ele>
        <time>2019-09-07T14:05:51Z</time>
      </trkpt>
      <trkpt lat="51.639638263732195" lon="5.131282517686486">
        <ele>-5.34</ele>
        <time>2019-09-07T14:05:52Z</time>
      </trkpt>
      <trkpt lat="51.639577662572265" lon="5.131506146863103">
        <ele>-5.85</ele>
        <time>2019-09-07T14:06:04Z</time>
      </trkpt>
      <trkpt lat="51.639578165486455" lon="5.131531963124871">
        <ele>-5.84</ele>
        <time>2019-09-07T14:06:05Z</time>
      </trkpt>
      <trkpt lat="51.639578584581614" lon="5.131556522101164">
        <ele>-5.85</ele>
        <time>2019-09-07T14:06:06Z</time>
      </trkpt>
      <trkpt lat="51.6394929215312" lon="5.131877800449729">
        <ele>-6.73</ele>
        <time>2019-09-07T14:06:20Z</time>
      </trkpt>
      <trkpt lat="51.639399547129869" lon="5.132079385221005">
        <ele>-7.68</ele>
        <time>2019-09-07T14:06:33Z</time>
      </trkpt>
      <trkpt lat="51.639353865757585" lon="5.132263787090778">
        <ele>-8</ele>
        <time>2019-09-07T14:06:58Z</time>
      </trkpt>
      <trkpt lat="51.639292594045401" lon="5.132367387413979">
        <ele>-6.92</ele>
        <time>2019-09-07T14:07:32Z</time>
      </trkpt>
      <trkpt lat="51.63928865455091" lon="5.132395718246698">
        <ele>-8.52</ele>
        <time>2019-09-07T14:07:34Z</time>
      </trkpt>
      <trkpt lat="51.639195866882801" lon="5.132503090426326">
        <ele>-8.44</ele>
        <time>2019-09-07T14:07:59Z</time>
      </trkpt>
      <trkpt lat="51.638950780034065" lon="5.132882287725806">
        <ele>-8.5</ele>
        <time>2019-09-07T14:08:46Z</time>
      </trkpt>
      <trkpt lat="51.638968968763947" lon="5.133007932454348">
        <ele>-10.15</ele>
        <time>2019-09-07T14:08:51Z</time>
      </trkpt>
      <trkpt lat="51.638962933793664" lon="5.133028635755181">
        <ele>-5.56</ele>
        <time>2019-09-07T14:08:54Z</time>
      </trkpt>
      <trkpt lat="51.638962682336569" lon="5.133034670725465">
        <ele>-10.82</ele>
        <time>2019-09-07T14:08:55Z</time>
      </trkpt>
      <trkpt lat="51.638960335403681" lon="5.133042884990573">
        <ele>-6.6</ele>
        <time>2019-09-07T14:08:56Z</time>
      </trkpt>
      <trkpt lat="51.638961089774966" lon="5.133137684315443">
        <ele>-8.93</ele>
        <time>2019-09-07T14:09:01Z</time>
      </trkpt>
      <trkpt lat="51.639078939333558" lon="5.133400289341807">
        <ele>-8.99</ele>
        <time>2019-09-07T14:09:18Z</time>
      </trkpt>
      <trkpt lat="51.639179773628712" lon="5.133587205782533">
        <ele>-9.050000000000001</ele>
        <time>2019-09-07T14:09:32Z</time>
      </trkpt>
      <trkpt lat="51.639294940978289" lon="5.133991967886686">
        <ele>-9.199999999999999</ele>
        <time>2019-09-07T14:09:56Z</time>
      </trkpt>
      <trkpt lat="51.639352440834045" lon="5.134176872670651">
        <ele>-10.17</ele>
        <time>2019-09-07T14:10:24Z</time>
      </trkpt>
      <trkpt lat="51.640270510688424" lon="5.138093903660774">
        <ele>-9.82</ele>
        <time>2019-09-07T14:12:48Z</time>
      </trkpt>
      <trkpt lat="51.640276126563549" lon="5.138160958886147">
        <ele>-9.800000000000001</ele>
        <time>2019-09-07T14:12:52Z</time>
      </trkpt>
      <trkpt lat="51.640288028866053" lon="5.138371260836721">
        <ele>-9.74</ele>
        <time>2019-09-07T14:13:05Z</time>
      </trkpt>
      <trkpt lat="51.64036170579493" lon="5.13936216942966">
        <ele>-9.67</ele>
        <time>2019-09-07T14:13:40Z</time>
      </trkpt>
      <trkpt lat="51.640388611704111" lon="5.139867598190904">
        <ele>-9.619999999999999</ele>
        <time>2019-09-07T14:13:58Z</time>
      </trkpt>
      <trkpt lat="51.640415601432323" lon="5.14026909135282">
        <ele>-9.550000000000001</ele>
        <time>2019-09-07T14:14:14Z</time>
      </trkpt>
      <trkpt lat="51.640399424359202" lon="5.14176232740283">
        <ele>-9.32</ele>
        <time>2019-09-07T14:15:17Z</time>
      </trkpt>
      <trkpt lat="51.640264391899109" lon="5.141820078715682">
        <ele>-9.26</ele>
        <time>2019-09-07T14:15:33Z</time>
      </trkpt>
      <trkpt lat="51.640032297000289" lon="5.141749251633883">
        <ele>-9.19</ele>
        <time>2019-09-07T14:15:50Z</time>
      </trkpt>
      <trkpt lat="51.639836244285107" lon="5.141692338511348">
        <ele>-9.109999999999999</ele>
        <time>2019-09-07T14:16:06Z</time>
      </trkpt>
      <trkpt lat="51.639607837423682" lon="5.141615392640233">
        <ele>-9.029999999999999</ele>
        <time>2019-09-07T14:16:22Z</time>
      </trkpt>
      <trkpt lat="51.639523347839713" lon="5.141591420397162">
        <ele>-9.01</ele>
        <time>2019-09-07T14:16:28Z</time>
      </trkpt>
      <trkpt lat="51.639470541849732" lon="5.141580021008849">
        <ele>-8.98</ele>
        <time>2019-09-07T14:16:32Z</time>
      </trkpt>
      <trkpt lat="51.639231070876122" lon="5.141511457040906">
        <ele>-7.89</ele>
        <time>2019-09-07T14:19:48Z</time>
      </trkpt>
      <trkpt lat="51.639019679278135" lon="5.141459656879306">
        <ele>-7.27</ele>
        <time>2019-09-07T14:21:30Z</time>
      </trkpt>
      <trkpt lat="51.638970142230392" lon="5.141444988548756">
        <ele>-7.13</ele>
        <time>2019-09-07T14:21:52Z</time>
      </trkpt>
      <trkpt lat="51.638901829719543" lon="5.141448760405183">
        <ele>-6.97</ele>
        <time>2019-09-07T14:22:14Z</time>
      </trkpt>
      <trkpt lat="51.638826476410031" lon="5.141427554190159">
        <ele>-6.87</ele>
        <time>2019-09-07T14:22:35Z</time>
      </trkpt>
      <trkpt lat="51.638759085908532" lon="5.141403414309025">
        <ele>-7.52</ele>
        <time>2019-09-07T14:22:56Z</time>
      </trkpt>
      <trkpt lat="51.6387331020087" lon="5.141408862546086">
        <ele>-7.19</ele>
        <time>2019-09-07T14:23:47Z</time>
      </trkpt>
      <trkpt lat="51.638719607144594" lon="5.141405006870627">
        <ele>-5.45</ele>
        <time>2019-09-07T14:24:07Z</time>
      </trkpt>
      <trkpt lat="51.6386778652668" lon="5.141385309398174">
        <ele>-5.34</ele>
        <time>2019-09-07T14:24:27Z</time>
      </trkpt>
      <trkpt lat="51.638610390946269" lon="5.141352284699678">
        <ele>-5.21</ele>
        <time>2019-09-07T14:24:50Z</time>
      </trkpt>
      <trkpt lat="51.638555992394686" lon="5.141435265541077">
        <ele>-5.11</ele>
        <time>2019-09-07T14:25:08Z</time>
      </trkpt>
      <trkpt lat="51.63854056969285" lon="5.141484132036567">
        <ele>-4.99</ele>
        <time>2019-09-07T14:25:27Z</time>
      </trkpt>
      <trkpt lat="51.6384809743613" lon="5.141917560249567">
        <ele>-4.6</ele>
        <time>2019-09-07T14:26:41Z</time>
      </trkpt>
      <trkpt lat="51.638375194743276" lon="5.142281670123339">
        <ele>-4.45</ele>
        <time>2019-09-07T14:27:20Z</time>
      </trkpt>
      <trkpt lat="51.638121055439115" lon="5.142170274630189">
        <ele>-4.43</ele>
        <time>2019-09-07T14:27:51Z</time>
      </trkpt>
      <trkpt lat="51.638070596382022" lon="5.142089640721679">
        <ele>-4.5</ele>
        <time>2019-09-07T14:28:35Z</time>
      </trkpt>
    </trkseg>
  </trk>

</gpx>